Data for 03/28/2010

Time Sea-Level Adjusted Pressure Absolute Pressure Temperature Relative Humidity Dew Point Precipitation   
(mb) (inHg) (mb) (inHg) (C) (F) (%) (C) (F) (mm) (in)
00:01 1025 30.27 855 25.25 0.5 32.8 59 -6.6 20.1 .962 0.038
00:02 1025 30.27 855 25.25 0.6 33.1 59 -6.6 20.2 1.047 0.041
00:03 1025 30.27 855 25.25 0.7 33.3 58 -6.6 20.2 1.154 0.045
00:04 1025 30.27 855 25.25 0.8 33.4 58 -6.5 20.4 1.205 0.047
00:05 1025 30.27 855 25.25 0.8 33.5 59 -6.3 20.6 1.234 0.049
00:06 1025 30.27 855 25.25 0.9 33.5 59 -6.3 20.6 1.212 0.048
00:07 1025 30.27 855 25.25 0.8 33.4 58 -6.5 20.4 1.189 0.047
00:08 1025 30.27 855 25.25 0.8 33.4 59 -6.4 20.5 1.201 0.047
00:09 1025 30.27 855 25.25 0.8 33.4 59 -6.4 20.4 1.167 0.046
00:10 1025 30.27 855 25.25 0.8 33.4 58 -6.5 20.3 1.116 0.044
00:11 1025 30.27 855 25.25 0.7 33.3 59 -6.5 20.3 1.117 0.044
00:12 1025 30.27 855 25.25 0.7 33.2 58 -6.6 20.2 1.071 0.042
00:13 1025 30.27 855 25.25 0.7 33.2 59 -6.5 20.2 1.066 0.042
00:14 1025 30.27 855 25.25 0.6 33.2 59 -6.5 20.2 1.038 0.041
00:15 1025 30.27 855 25.25 0.7 33.2 59 -6.5 20.2 1.032 0.041
00:16 1025 30.27 855 25.25 0.6 33.1 59 -6.6 20.2 1.061 0.042
00:17 1025 30.27 855 25.25 0.6 33.1 59 -6.6 20.1 1.016 0.04
00:18 1025 30.27 855 25.25 0.6 33.1 59 -6.6 20.1 1.044 0.041
00:19 1025 30.27 855 25.25 0.6 33.1 58 -6.6 20 1.021 0.04
00:20 1025 30.27 855 25.25 0.6 33.2 57 -6.8 19.7 1.072 0.042
00:21 1025 30.27 855 25.25 0.7 33.3 57 -6.8 19.8 1.157 0.046
00:22 1025 30.27 855 25.25 0.8 33.4 57 -6.7 19.9 1.181 0.046
00:23 1025 30.27 855 25.25 0.8 33.4 58 -6.6 20 1.159 0.046
00:24 1025 30.27 855 25.25 0.7 33.2 58 -6.7 19.9 1.057 0.042
00:25 1025 30.27 855 25.25 0.6 33.1 57 -6.9 19.6 .989 0.039
00:26 1025 30.27 855 25.25 0.6 33.1 59 -6.6 20.2 .983 0.039
00:27 1025 30.27 855 25.25 0.5 33 61 -6.1 20.9 .927 0.036
00:28 1025 30.27 855 25.25 0.5 32.8 61 -6.1 21 .825 0.032
00:29 1025 30.27 855 25.25 0.4 32.8 61 -6.3 20.6 .745 0.029
00:30 1025 30.27 855 25.25 0.5 32.8 60 -6.5 20.3 .791 0.031
00:31 1025 30.27 855 25.25 0.5 33 59 -6.6 20.1 .853 0.034
00:32 1025 30.27 855 25.25 0.6 33.1 57 -6.9 19.6 .876 0.034
00:33 1025 30.27 855 25.25 0.8 33.4 56 -7 19.5 1 0.039
00:34 1025 30.27 855 25.25 0.9 33.6 55 -7.1 19.2 1.103 0.043
00:35 1025 30.27 855 25.25 1 33.8 55 -7 19.4 1.234 0.049
00:36 1025 30.27 855 25.25 1 33.8 57 -6.5 20.3 1.234 0.049
00:37 1025 30.27 855 25.25 0.4 32.7 59 -6.6 20.1 .719 0.028
00:38 1025 30.27 855 25.25 -0 32 61 -6.7 20 .334 0.013
00:39 1025 30.27 855 25.25 -0.2 31.6 61 -6.8 19.8 .131 0.005
00:40 1025 30.27 855 25.25 -0.3 31.5 61 -6.9 19.5 .024 0.001
00:41 1025 30.27 855 25.25 -0.2 31.6 60 -7 19.5 .041 0.002
00:42 1025 30.27 855 25.25 -0.1 31.8 61 -6.8 19.7 .081 0.003
00:43 1025 30.27 855 25.25 -0.1 31.8 60 -6.9 19.6 .058 0.002
00:44 1025 30.27 854 25.22 -0.1 31.8 61 -6.8 19.8 .075 0.003
00:45 1025 30.27 854 25.22 -0.2 31.6 63 -6.4 20.4 .036 0.001
00:46 1025 30.27 854 25.22 -0.5 31.1 68 -5.7 21.7 -.1 -0.004
00:47 1025 30.27 854 25.22 -0.8 30.5 69 -5.8 21.5 -.326 -0.013
00:48 1025 30.27 854 25.22 -1 30.1 70 -5.9 21.4 -.541 -0.021
00:49 1025 30.27 854 25.22 -1.3 29.6 70 -6.1 21 -.796 -0.031
00:50 1025 30.27 854 25.22 -1.6 29.1 71 -6.1 20.9 -1.056 -0.042
00:51 1025 30.27 854 25.22 -1.8 28.7 73 -6 21.3 -1.294 -0.051
00:52 1025 30.27 854 25.22 -2 28.4 75 -5.9 21.4 -1.475 -0.058
00:53 1025 30.27 854 25.22 -2.1 28.2 75 -5.9 21.3 -1.616 -0.064
00:54 1025 30.27 854 25.22 -2.1 28.2 74 -6.1 20.9 -1.639 -0.065
00:55 1025 30.27 854 25.22 -2.1 28.2 74 -6.2 20.9 -1.718 -0.068
00:56 1025 30.27 854 25.22 -2.1 28.2 73 -6.4 20.5 -1.69 -0.067
00:57 1025 30.27 854 25.22 -2 28.4 72 -6.3 20.7 -1.605 -0.063
00:58 1025 30.27 854 25.22 -1.8 28.7 72 -6.3 20.7 -1.491 -0.059
00:59 1025 30.27 854 25.22 -1.8 28.8 72 -6.2 20.9 -1.429 -0.056
01:00 1025 30.27 854 25.22 -2 28.4 73 -6.3 20.7 -1.627 -0.064
01:01 1025 30.27 854 25.22 -2.2 28 74 -6.3 20.7 -1.78 -0.07
01:02 1025 30.27 854 25.22 -2.2 28 74 -6.3 20.7 -1.825 -0.072
01:03 1025 30.27 854 25.22 -2.3 27.9 73 -6.5 20.3 -1.865 -0.073
01:04 1025 30.27 854 25.22 -2.2 28 72 -6.6 20.1 -1.842 -0.073
01:05 1025 30.27 854 25.22 -2.2 28 73 -6.4 20.4 -1.888 -0.074
01:06 1025 30.27 854 25.22 -2.2 28.1 73 -6.4 20.5 -1.825 -0.072
01:07 1025 30.27 854 25.22 -2 28.4 72 -6.4 20.4 -1.65 -0.065
01:08 1025 30.27 854 25.22 -2 28.3 71 -6.6 20.2 -1.678 -0.066
01:09 1025 30.27 854 25.22 -2.1 28.2 72 -6.5 20.4 -1.802 -0.071
01:10 1025 30.27 854 25.22 -2.2 28 74 -6.2 20.8 -1.876 -0.074
01:11 1025 30.27 854 25.22 -2.3 27.9 74 -6.3 20.6 -1.893 -0.075
01:12 1025 30.27 854 25.22 -2.3 27.8 74 -6.4 20.5 -1.927 -0.076
01:13 1025 30.27 854 25.22 -2.5 27.5 75 -6.4 20.4 -2.102 -0.083
01:14 1025 30.27 854 25.22 -2.7 27.2 75 -6.6 20.2 -2.238 -0.088
01:15 1025 30.27 854 25.22 -2.7 27.2 75 -6.6 20.2 -2.312 -0.091
01:16 1025 30.27 854 25.22 -2.7 27.1 76 -6.5 20.3 -2.318 -0.091
01:17 1025 30.27 854 25.22 -2.7 27.1 76 -6.4 20.5 -2.312 -0.091
01:18 1025 30.27 854 25.22 -2.8 27 75 -6.6 20.2 -2.346 -0.092
01:19 1025 30.27 854 25.22 -2.7 27.2 74 -6.7 19.9 -2.284 -0.09
01:20 1025 30.27 854 25.22 -2.5 27.5 73 -6.7 20 -2.153 -0.085
01:21 1025 30.27 854 25.22 -2.3 27.8 73 -6.6 20.1 -1.955 -0.077
01:22 1025 30.27 854 25.22 -2.1 28.2 71 -6.7 20 -1.785 -0.07
01:23 1025 30.27 854 25.22 -1.8 28.7 70 -6.6 20.1 -1.508 -0.059
01:24 1025 30.27 854 25.22 -1.7 28.9 70 -6.6 20.2 -1.428 -0.056
01:25 1025 30.27 854 25.22 -1.7 29 69 -6.6 20.1 -1.343 -0.053
01:26 1025 30.27 854 25.22 -1.7 28.9 70 -6.4 20.5 -1.349 -0.053
01:27 1025 30.27 854 25.22 -1.8 28.7 70 -6.6 20.1 -1.485 -0.058
01:28 1025 30.27 854 25.22 -1.9 28.6 71 -6.6 20.2 -1.53 -0.06
01:29 1025 30.27 854 25.22 -2 28.5 72 -6.4 20.5 -1.57 -0.062
01:30 1025 30.27 854 25.22 -2.1 28.3 71 -6.6 20.1 -1.695 -0.067
01:31 1025 30.27 854 25.22 -2.1 28.2 70 -6.9 19.6 -1.768 -0.07
01:32 1025 30.27 854 25.22 -2.1 28.1 70 -6.8 19.7 -1.836 -0.072
01:33 1025 30.27 854 25.22 -2.3 27.8 73 -6.5 20.3 -1.932 -0.076
01:34 1025 30.27 854 25.22 -2.4 27.7 70 -7 19.3 -1.972 -0.078
01:35 1025 30.27 854 25.22 -2.2 28.1 71 -6.8 19.8 -1.87 -0.074
01:36 1025 30.27 854 25.22 -2.2 28 70 -7 19.5 -1.864 -0.073
01:37 1025 30.27 854 25.22 -2.1 28.3 70 -6.9 19.6 -1.757 -0.069
01:38 1025 30.27 854 25.22 -2 28.3 71 -6.6 20.1 -1.672 -0.066
01:39 1025 30.27 854 25.22 -2.2 28.1 72 -6.6 20.1 -1.836 -0.072
01:40 1025 30.27 854 25.22 -2.3 27.8 72 -6.8 19.8 -1.938 -0.076
01:41 1025 30.27 854 25.22 -2.4 27.6 73 -6.7 19.9 -2.063 -0.081
01:42 1025 30.27 854 25.22 -2.6 27.4 73 -6.8 19.8 -2.204 -0.087
01:43 1025 30.27 854 25.22 -2.6 27.2 74 -6.7 19.9 -2.232 -0.088
01:44 1025 30.27 854 25.22 -2.6 27.2 75 -6.6 20.2 -2.261 -0.089
01:45 1025 30.27 854 25.22 -2.7 27.2 76 -6.4 20.4 -2.289 -0.09
01:46 1025 30.27 854 25.22 -2.6 27.3 78 -5.9 21.3 -2.244 -0.088
01:47 1025 30.27 854 25.22 -2.5 27.5 77 -6 21.1 -2.124 -0.084
01:48 1025 30.27 854 25.22 -2.4 27.8 76 -6 21.2 -2.044 -0.08
01:49 1025 30.27 854 25.22 -2.4 27.8 77 -5.9 21.4 -2.01 -0.079
01:50 1025 30.27 854 25.22 -2.3 27.8 76 -5.9 21.3 -1.975 -0.078
01:51 1025 30.27 854 25.22 -2.3 27.9 77 -5.8 21.5 -1.97 -0.078
01:52 1025 30.27 854 25.22 -2.3 27.8 78 -5.7 21.8 -1.97 -0.078
01:53 1025 30.27 854 25.22 -2.3 27.8 76 -6.1 21 -1.981 -0.078
01:54 1025 30.27 854 25.22 -2.3 27.9 73 -6.4 20.5 -1.998 -0.079
01:55 1025 30.27 854 25.22 -2.2 28 73 -6.5 20.4 -1.942 -0.076
01:56 1025 30.27 854 25.22 -2.3 27.9 73 -6.5 20.3 -1.952 -0.077
01:57 1025 30.27 854 25.22 -2.4 27.7 73 -6.5 20.3 -2.037 -0.08
01:58 1025 30.27 854 25.22 -2.6 27.3 73 -6.9 19.7 -2.264 -0.089
01:59 1025 30.27 854 25.22 -2.9 26.8 75 -6.7 19.9 -2.535 -0.1
02:00 1025 30.27 854 25.22 -3.2 26.3 77 -6.6 20 -2.79 -0.11
02:01 1025 30.27 854 25.22 -3.2 26.2 78 -6.6 20.1 -2.841 -0.112
02:02 1025 30.27 854 25.22 -3.3 26.1 77 -6.7 20 -2.812 -0.111
02:03 1025 30.27 854 25.22 -3.2 26.2 76 -6.8 19.7 -2.851 -0.112
02:04 1025 30.27 854 25.22 -3.2 26.2 75 -7 19.4 -2.851 -0.112
02:05 1025 30.27 854 25.22 -3.3 26.1 76 -6.9 19.5 -2.862 -0.113
02:06 1025 30.27 854 25.22 -3.3 26 77 -6.9 19.6 -2.947 -0.116
02:07 1025 30.27 854 25.22 -3.4 25.9 77 -6.9 19.5 -3.004 -0.118
02:08 1025 30.27 854 25.22 -3.4 25.9 76 -7 19.5 -2.981 -0.117
02:09 1025 30.27 854 25.22 -3.3 26 76 -7 19.4 -2.964 -0.117
02:10 1025 30.27 854 25.22 -3.3 26 76 -7 19.4 -2.975 -0.117
02:11 1025 30.27 854 25.22 -3.3 26 76 -7.1 19.3 -2.958 -0.116
02:12 1025 30.27 854 25.22 -3.3 26 75 -7.1 19.3 -2.93 -0.115
02:13 1025 30.27 854 25.22 -3.3 26.1 75 -7.1 19.3 -2.923 -0.115
02:14 1025 30.27 854 25.22 -3.2 26.2 75 -7 19.3 -2.917 -0.115
02:15 1025 30.27 854 25.22 -3.2 26.2 75 -7.1 19.3 -2.877 -0.113
02:16 1025 30.27 854 25.22 -3.2 26.2 76 -6.9 19.6 -2.843 -0.112
02:17 1025 30.27 854 25.22 -3.1 26.4 77 -6.6 20.1 -2.82 -0.111
02:18 1024 30.24 854 25.22 -2.9 26.8 77 -6.4 20.5 -2.594 -0.102
02:19 1024 30.24 854 25.22 -2.6 27.3 73 -6.7 19.9 -2.339 -0.092
02:20 1024 30.24 854 25.22 -2.3 27.9 72 -6.7 19.9 -2.113 -0.083
02:21 1024 30.24 854 25.22 -2 28.4 72 -6.4 20.5 -1.835 -0.072
02:22 1024 30.24 854 25.22 -2 28.4 69 -7 19.4 -1.84 -0.072
02:23 1024 30.24 854 25.22 -2.1 28.2 68 -7.2 19.1 -1.958 -0.077
02:24 1024 30.24 854 25.22 -2.2 28 68 -7.3 18.8 -1.998 -0.079
02:25 1024 30.24 854 25.22 -2.3 27.8 68 -7.5 18.6 -2.077 -0.082
02:26 1024 30.24 854 25.22 -2.3 27.8 68 -7.4 18.7 -2.076 -0.082
02:27 1024 30.24 854 25.22 -2.4 27.6 69 -7.3 18.8 -2.116 -0.083
02:28 1024 30.24 854 25.22 -2.5 27.5 70 -7.2 19 -2.178 -0.086
02:29 1024 30.24 854 25.22 -2.6 27.2 71 -7.2 19.1 -2.262 -0.089
02:30 1024 30.24 854 25.22 -2.7 27.1 71 -7.3 18.8 -2.359 -0.093
02:31 1024 30.24 854 25.22 -2.9 26.8 71 -7.4 18.7 -2.483 -0.098
02:32 1024 30.24 854 25.22 -3 26.6 72 -7.3 18.9 -2.607 -0.103
02:33 1024 30.24 854 25.22 -3.1 26.4 73 -7.2 19 -2.726 -0.107
02:34 1024 30.24 854 25.22 -3.2 26.3 74 -7.2 19 -2.766 -0.109
02:35 1024 30.24 854 25.22 -3.2 26.3 74 -7.2 19.1 -2.822 -0.111
02:36 1024 30.24 854 25.22 -3.3 26 74 -7.4 18.7 -2.907 -0.114
02:37 1024 30.24 854 25.22 -3.5 25.8 74 -7.5 18.6 -3.043 -0.12
02:38 1024 30.24 854 25.22 -3.5 25.6 74 -7.4 18.6 -3.128 -0.123
02:39 1024 30.24 854 25.22 -3.5 25.6 76 -7.1 19.1 -3.128 -0.123
02:40 1024 30.24 854 25.22 -3.6 25.6 76 -7.2 19.1 -3.195 -0.126
02:41 1024 30.24 854 25.22 -3.6 25.5 76 -7.3 18.8 -3.229 -0.127
02:42 1024 30.24 854 25.22 -3.6 25.5 75 -7.5 18.5 -3.201 -0.126
02:43 1024 30.24 854 25.22 -3.6 25.5 75 -7.3 18.8 -3.246 -0.128
02:44 1024 30.24 853 25.19 -3.6 25.6 76 -7.3 18.9 -3.155 -0.124
02:45 1024 30.24 853 25.19 -3.4 25.8 74 -7.5 18.5 -3.082 -0.121
02:46 1024 30.24 853 25.19 -3.4 25.9 73 -7.5 18.5 -3.048 -0.12
02:47 1024 30.24 853 25.19 -3.4 25.9 73 -7.5 18.4 -2.997 -0.118
02:48 1024 30.24 853 25.19 -3.4 26 73 -7.5 18.5 -3.025 -0.119
02:49 1024 30.24 853 25.19 -3.3 26 73 -7.5 18.5 -2.968 -0.117
02:50 1024 30.24 853 25.19 -3.2 26.2 73 -7.4 18.6 -2.883 -0.114
02:51 1024 30.24 853 25.19 -3.2 26.2 72 -7.5 18.4 -2.821 -0.111
02:52 1024 30.24 853 25.19 -3.2 26.2 72 -7.5 18.5 -2.866 -0.113
02:53 1024 30.24 853 25.19 -3.3 26.1 72 -7.6 18.3 -2.877 -0.113
02:54 1024 30.24 853 25.19 -3.4 25.9 74 -7.4 18.6 -2.985 -0.118
02:55 1024 30.24 853 25.19 -3.5 25.8 74 -7.5 18.5 -3.064 -0.121
02:56 1024 30.24 853 25.19 -3.6 25.4 75 -7.5 18.5 -3.234 -0.127
02:57 1024 30.24 853 25.19 -3.8 25.2 74 -7.7 18.2 -3.381 -0.133
02:58 1024 30.24 853 25.19 -3.8 25.2 75 -7.7 18.2 -3.427 -0.135
02:59 1024 30.24 853 25.19 -3.9 25 76 -7.6 18.4 -3.512 -0.138
03:00 1024 30.24 853 25.19 -4 24.9 75 -7.7 18.2 -3.557 -0.14
03:01 1024 30.24 853 25.19 -4 24.9 75 -7.7 18.1 -3.528 -0.139
03:02 1024 30.24 853 25.19 -3.8 25.1 75 -7.7 18.1 -3.477 -0.137
03:03 1024 30.24 853 25.19 -3.8 25.2 75 -7.7 18.2 -3.392 -0.134
03:04 1024 30.24 853 25.19 -3.7 25.3 75 -7.4 18.6 -3.319 -0.131
03:05 1024 30.24 853 25.19 -3.7 25.4 76 -7.3 18.8 -3.285 -0.129
03:06 1024 30.24 853 25.19 -3.6 25.6 75 -7.3 18.8 -3.183 -0.125
03:07 1024 30.24 853 25.19 -3.5 25.7 74 -7.4 18.6 -3.143 -0.124
03:08 1024 30.24 853 25.19 -3.5 25.6 74 -7.5 18.6 -3.138 -0.124
03:09 1024 30.24 853 25.19 -3.6 25.5 75 -7.4 18.6 -3.166 -0.125
03:10 1024 30.24 853 25.19 -3.6 25.5 74 -7.5 18.5 -3.211 -0.126
03:11 1024 30.24 853 25.19 -3.6 25.5 74 -7.5 18.4 -3.2 -0.126
03:12 1024 30.24 853 25.19 -3.6 25.5 74 -7.6 18.4 -3.262 -0.128
03:13 1024 30.24 853 25.19 -3.8 25.2 75 -7.7 18.2 -3.409 -0.134
03:14 1024 30.24 853 25.19 -3.9 24.9 76 -7.6 18.4 -3.494 -0.138
03:15 1024 30.24 853 25.19 -4 24.9 75 -7.7 18.1 -3.54 -0.139
03:16 1024 30.24 853 25.19 -4 24.8 76 -7.7 18.1 -3.625 -0.143
03:17 1024 30.24 853 25.19 -4 24.8 76 -7.7 18.2 -3.625 -0.143
03:18 1024 30.24 853 25.19 -4.1 24.6 77 -7.6 18.3 -3.659 -0.144
03:19 1024 30.24 853 25.19 -4.1 24.6 76 -7.7 18.1 -3.727 -0.147
03:20 1024 30.24 853 25.19 -4 24.8 75 -7.8 17.9 -3.619 -0.142
03:21 1024 30.24 853 25.19 -3.8 25.1 74 -7.8 17.9 -3.438 -0.135
03:22 1024 30.24 853 25.19 -3.6 25.4 74 -7.6 18.3 -3.313 -0.13
03:23 1024 30.24 853 25.19 -3.4 25.9 71 -8 17.7 -3.086 -0.121
03:24 1024 30.24 853 25.19 -3.1 26.4 70 -7.8 17.9 -2.746 -0.108
03:25 1024 30.24 853 25.19 -2.9 26.8 69 -7.8 18 -2.565 -0.101
03:26 1024 30.24 853 25.19 -2.6 27.2 67 -7.9 17.8 -2.322 -0.091
03:27 1024 30.24 853 25.19 -2.4 27.8 67 -7.6 18.3 -2.004 -0.079
03:28 1024 30.24 853 25.19 -2.2 28 67 -7.5 18.4 -1.823 -0.072
03:29 1024 30.24 853 25.19 -2.1 28.3 67 -7.5 18.6 -1.71 -0.067
03:30 1024 30.24 853 25.19 -2 28.4 64 -7.8 17.9 -1.653 -0.065
03:31 1024 30.24 853 25.19 -1.9 28.6 63 -8 17.5 -1.568 -0.062
03:32 1024 30.24 853 25.19 -1.8 28.8 64 -7.7 18.1 -1.46 -0.057
03:33 1024 30.24 853 25.19 -1.9 28.6 64 -7.8 18 -1.511 -0.059
03:34 1024 30.24 853 25.19 -1.9 28.5 65 -7.8 18 -1.591 -0.063
03:35 1024 30.24 853 25.19 -2.1 28.2 66 -7.6 18.4 -1.687 -0.066
03:36 1024 30.24 853 25.19 -2.3 27.9 68 -7.4 18.7 -1.846 -0.073
03:37 1024 30.24 853 25.19 -2.4 27.6 68 -7.5 18.5 -1.976 -0.078
03:38 1024 30.24 853 25.19 -2.5 27.5 68 -7.7 18.2 -2.067 -0.081
03:39 1024 30.24 853 25.19 -2.5 27.4 68 -7.7 18.2 -2.14 -0.084
03:40 1024 30.24 853 25.19 -2.6 27.3 69 -7.6 18.3 -2.197 -0.086
03:41 1024 30.24 853 25.19 -2.8 27 70 -7.5 18.6 -2.35 -0.093
03:42 1024 30.24 853 25.19 -2.8 27 71 -7.4 18.6 -2.401 -0.095
03:43 1024 30.24 853 25.19 -2.8 26.9 71 -7.4 18.7 -2.458 -0.097
03:44 1024 30.24 853 25.19 -2.9 26.9 70 -7.5 18.4 -2.503 -0.099
03:45 1024 30.24 853 25.19 -3 26.6 71 -7.6 18.3 -2.599 -0.102
03:46 1024 30.24 853 25.19 -3 26.5 71 -7.5 18.4 -2.673 -0.105
03:47 1024 30.24 853 25.19 -3.1 26.5 72 -7.5 18.5 -2.741 -0.108
03:48 1024 30.24 853 25.19 -3 26.6 72 -7.4 18.6 -2.695 -0.106
03:49 1024 30.24 853 25.19 -2.9 26.8 71 -7.4 18.7 -2.605 -0.103
03:50 1024 30.24 853 25.19 -2.8 26.9 73 -7 19.4 -2.509 -0.099
03:51 1024 30.24 853 25.19 -2.8 26.9 71 -7.3 18.8 -2.537 -0.1
03:52 1024 30.24 853 25.19 -2.9 26.8 72 -7.3 18.8 -2.571 -0.101
03:53 1024 30.24 853 25.19 -3.1 26.5 72 -7.4 18.7 -2.712 -0.107
03:54 1024 30.24 853 25.19 -3.2 26.2 72 -7.5 18.5 -2.86 -0.113
03:55 1024 30.24 853 25.19 -3.4 25.8 73 -7.5 18.4 -3.075 -0.121
03:56 1024 30.24 853 25.19 -3.5 25.6 74 -7.5 18.5 -3.115 -0.123
03:57 1024 30.24 853 25.19 -3.6 25.5 74 -7.5 18.4 -3.217 -0.127
03:58 1024 30.24 853 25.19 -3.6 25.5 74 -7.5 18.5 -3.205 -0.126
03:59 1024 30.24 853 25.19 -3.6 25.5 74 -7.5 18.5 -3.222 -0.127
04:00 1024 30.24 853 25.19 -3.6 25.4 74 -7.6 18.3 -3.296 -0.13
04:01 1024 30.24 853 25.19 -3.6 25.5 74 -7.6 18.3 -3.256 -0.128
04:02 1024 30.24 853 25.19 -3.6 25.5 75 -7.5 18.5 -3.279 -0.129
04:03 1024 30.24 853 25.19 -3.5 25.7 75 -7.4 18.8 -3.188 -0.126
04:04 1024 30.24 853 25.19 -3.3 26.1 73 -7.4 18.6 -2.99 -0.118
04:05 1024 30.24 853 25.19 -3.2 26.3 72 -7.5 18.5 -2.939 -0.116
04:06 1024 30.24 853 25.19 -3.3 26.1 72 -7.6 18.3 -2.962 -0.117
04:07 1024 30.24 853 25.19 -3.3 26 73 -7.6 18.3 -3.064 -0.121
04:08 1024 30.24 853 25.19 -3.5 25.8 73 -7.6 18.2 -3.137 -0.124
04:09 1024 30.24 853 25.19 -3.6 25.5 73 -7.7 18.2 -3.239 -0.128
04:10 1024 30.24 853 25.19 -3.7 25.3 74 -7.7 18.1 -3.324 -0.131
04:11 1024 30.24 853 25.19 -3.9 25 75 -7.7 18.1 -3.489 -0.137
04:12 1024 30.24 853 25.19 -4.1 24.7 75 -7.9 17.9 -3.664 -0.144
04:13 1024 30.24 853 25.19 -4.2 24.5 75 -7.9 17.7 -3.772 -0.149
04:14 1024 30.24 853 25.19 -4.2 24.4 75 -8 17.6 -3.789 -0.149
04:15 1024 30.24 853 25.19 -4.1 24.5 73 -8.2 17.2 -3.817 -0.15
04:16 1024 30.24 853 25.19 -4.2 24.5 74 -8.2 17.3 -3.794 -0.149
04:17 1024 30.24 853 25.19 -4.2 24.4 76 -7.9 17.8 -3.823 -0.151
04:18 1024 30.24 853 25.19 -4.3 24.3 76 -7.9 17.9 -3.84 -0.151
04:19 1024 30.24 853 25.19 -4.3 24.3 79 -7.4 18.6 -3.8 -0.15
04:20 1024 30.24 853 25.19 -3.9 24.9 77 -7.5 18.5 -3.528 -0.139
04:21 1024 30.24 853 25.19 -3.6 25.5 77 -7 19.3 -3.239 -0.128
04:22 1024 30.24 853 25.19 -3.4 25.8 76 -7.1 19.2 -3.046 -0.12
04:23 1024 30.24 853 25.19 -3.3 26.1 75 -7.1 19.3 -2.932 -0.115
04:24 1024 30.24 853 25.19 -3.2 26.2 75 -7 19.4 -2.87 -0.113
04:25 1024 30.24 853 25.19 -3.2 26.3 74 -7.1 19.2 -2.825 -0.111
04:26 1024 30.24 853 25.19 -3.1 26.5 73 -7.2 19.1 -2.717 -0.107
04:27 1024 30.24 853 25.19 -3 26.6 75 -6.9 19.6 -2.677 -0.105
04:28 1024 30.24 853 25.19 -3 26.6 73 -7.2 19 -2.672 -0.105
04:29 1024 30.24 853 25.19 -2.9 26.7 74 -7 19.4 -2.593 -0.102
04:30 1024 30.24 853 25.19 -2.9 26.9 73 -7.1 19.3 -2.496 -0.098
04:31 1024 30.24 853 25.19 -2.8 27 73 -6.9 19.6 -2.473 -0.097
04:32 1024 30.24 853 25.19 -2.8 27 72 -7.1 19.1 -2.456 -0.097
04:33 1024 30.24 853 25.19 -2.8 27 72 -7.2 19.1 -2.444 -0.096
04:34 1024 30.24 853 25.19 -2.7 27.1 72 -7.1 19.2 -2.404 -0.095
04:35 1024 30.24 853 25.19 -2.7 27.1 72 -7.2 19.1 -2.404 -0.095
04:36 1024 30.24 853 25.19 -2.7 27.2 72 -7.1 19.2 -2.375 -0.094
04:37 1024 30.24 853 25.19 -2.7 27.1 72 -7.1 19.1 -2.364 -0.093
04:38 1024 30.24 853 25.19 -2.7 27.2 72 -7 19.3 -2.318 -0.091
04:39 1024 30.24 853 25.19 -2.7 27.2 71 -7.1 19.1 -2.301 -0.091
04:40 1024 30.24 853 25.19 -2.6 27.2 71 -7.2 19.1 -2.295 -0.09
04:41 1024 30.24 853 25.19 -2.6 27.3 71 -7.2 19 -2.266 -0.089
04:42 1024 30.24 853 25.19 -2.6 27.4 70 -7.3 18.8 -2.249 -0.089
04:43 1024 30.24 853 25.19 -2.5 27.4 70 -7.4 18.8 -2.215 -0.087
04:44 1024 30.24 853 25.19 -2.5 27.5 70 -7.3 18.8 -2.17 -0.085
04:45 1024 30.24 853 25.19 -2.5 27.5 70 -7.2 19 -2.153 -0.085
04:46 1024 30.24 853 25.19 -2.5 27.6 69 -7.4 18.7 -2.118 -0.083
04:47 1024 30.24 853 25.19 -2.4 27.7 68 -7.5 18.4 -2.028 -0.08
04:48 1024 30.24 853 25.19 -2.3 27.8 67 -7.6 18.2 -1.943 -0.076
04:49 1024 30.24 853 25.19 -2.2 28 65 -7.8 17.9 -1.874 -0.074
04:50 1024 30.24 853 25.19 -2.1 28.2 64 -7.9 17.7 -1.784 -0.07
04:51 1024 30.24 853 25.19 -1.9 28.6 64 -7.9 17.8 -1.625 -0.064
04:52 1024 30.24 853 25.19 -1.8 28.9 63 -7.9 17.9 -1.5 -0.059
04:53 1024 30.24 853 25.19 -1.7 29 64 -7.7 18.2 -1.387 -0.055
04:54 1024 30.24 853 25.19 -1.6 29.1 63 -7.7 18.1 -1.313 -0.052
04:55 1024 30.24 853 25.19 -1.6 29.1 63 -7.7 18.2 -1.324 -0.052
04:56 1024 30.24 853 25.19 -1.7 29 64 -7.6 18.3 -1.381 -0.054
04:57 1024 30.24 853 25.19 -1.8 28.8 65 -7.6 18.4 -1.426 -0.056
04:58 1024 30.24 853 25.19 -1.8 28.7 65 -7.5 18.5 -1.524 -0.06
04:59 1024 30.24 853 25.19 -1.9 28.5 66 -7.5 18.4 -1.586 -0.062
05:00 1024 30.24 853 25.19 -2 28.3 66 -7.6 18.3 -1.677 -0.066
05:01 1024 30.24 853 25.19 -2.1 28.3 66 -7.6 18.3 -1.729 -0.068
05:02 1024 30.24 853 25.19 -2.1 28.2 66 -7.7 18.2 -1.763 -0.069
05:03 1023 30.21 853 25.19 -2 28.3 65 -7.7 18.2 -1.695 -0.067
05:04 1023 30.21 853 25.19 -2 28.4 66 -7.5 18.4 -1.644 -0.065
05:05 1023 30.21 853 25.19 -2 28.4 65 -7.8 18 -1.599 -0.063
05:06 1023 30.21 853 25.19 -1.9 28.6 65 -7.7 18.1 -1.565 -0.062
05:07 1023 30.21 853 25.19 -1.9 28.7 64 -7.7 18.1 -1.513 -0.06
05:08 1023 30.21 853 25.19 -1.8 28.8 65 -7.4 18.6 -1.474 -0.058
05:09 1023 30.21 853 25.19 -1.8 28.7 66 -7.4 18.6 -1.485 -0.058
05:10 1023 30.21 853 25.19 -1.9 28.6 66 -7.4 18.8 -1.513 -0.06
05:11 1023 30.21 853 25.19 -1.9 28.5 66 -7.5 18.4 -1.57 -0.062
05:12 1023 30.21 853 25.19 -1.9 28.6 65 -7.6 18.3 -1.541 -0.061
05:13 1023 30.21 853 25.19 -1.9 28.6 64 -7.9 17.9 -1.484 -0.058
05:14 1023 30.21 853 25.19 -1.8 28.7 64 -7.8 17.9 -1.461 -0.058
05:15 1023 30.21 853 25.19 -1.8 28.8 64 -7.8 18 -1.405 -0.055
05:16 1023 30.21 853 25.19 -1.7 28.9 63 -7.8 18 -1.348 -0.053
05:17 1023 30.21 853 25.19 -1.7 29 63 -7.8 18 -1.325 -0.052
05:18 1023 30.21 853 25.19 -1.6 29.1 62 -7.9 17.8 -1.309 -0.052
05:19 1023 30.21 852 25.16 -1.6 29.1 62 -8 17.6 -1.269 -0.05
05:20 1023 30.21 852 25.16 -1.6 29.1 64 -7.6 18.3 -1.252 -0.049
05:21 1023 30.21 852 25.16 -1.6 29 65 -7.5 18.5 -1.321 -0.052
05:22 1023 30.21 852 25.16 -1.8 28.8 64 -7.7 18.2 -1.361 -0.054
05:23 1023 30.21 852 25.16 -1.8 28.8 64 -7.7 18.1 -1.429 -0.056
05:24 1023 30.21 852 25.16 -1.8 28.8 64 -7.7 18.1 -1.446 -0.057
05:25 1023 30.21 852 25.16 -1.8 28.8 64 -7.7 18.1 -1.447 -0.057
05:26 1023 30.21 852 25.16 -1.8 28.7 66 -7.4 18.6 -1.458 -0.057
05:27 1023 30.21 852 25.16 -1.9 28.5 65 -7.6 18.4 -1.487 -0.059
05:28 1023 30.21 852 25.16 -2 28.4 66 -7.5 18.5 -1.628 -0.064
05:29 1023 30.21 852 25.16 -2.1 28.2 67 -7.4 18.6 -1.725 -0.068
05:30 1023 30.21 852 25.16 -2.3 27.8 67 -7.6 18.3 -1.884 -0.074
05:31 1023 30.21 852 25.16 -2.4 27.6 68 -7.6 18.4 -2.025 -0.08
05:32 1023 30.21 852 25.16 -2.6 27.4 68 -7.6 18.2 -2.116 -0.083
05:33 1023 30.21 852 25.16 -2.7 27.2 69 -7.6 18.4 -2.252 -0.089
05:34 1023 30.21 852 25.16 -2.8 27 69 -7.7 18.2 -2.303 -0.091
05:35 1023 30.21 852 25.16 -2.8 27 69 -7.7 18.1 -2.36 -0.093
05:36 1023 30.21 852 25.16 -2.8 27 69 -7.7 18.2 -2.377 -0.094
05:37 1023 30.21 852 25.16 -2.8 27 70 -7.6 18.4 -2.417 -0.095
05:38 1023 30.21 852 25.16 -2.8 26.9 70 -7.6 18.3 -2.485 -0.098
05:39 1023 30.21 852 25.16 -2.8 27 69 -7.7 18.1 -2.468 -0.097
05:40 1023 30.21 852 25.16 -2.8 26.9 69 -7.7 18.2 -2.462 -0.097
05:41 1023 30.21 852 25.16 -2.9 26.8 70 -7.6 18.3 -2.536 -0.1
05:42 1023 30.21 852 25.16 -3 26.7 70 -7.6 18.3 -2.61 -0.103
05:43 1023 30.21 852 25.16 -2.9 26.8 70 -7.6 18.3 -2.593 -0.102
05:44 1023 30.21 852 25.16 -2.8 27 70 -7.5 18.4 -2.491 -0.098
05:45 1023 30.21 852 25.16 -2.7 27.1 69 -7.6 18.4 -2.429 -0.096
05:46 1023 30.21 852 25.16 -2.7 27.1 69 -7.7 18.2 -2.389 -0.094
05:47 1023 30.21 852 25.16 -2.7 27.1 68 -7.7 18.1 -2.383 -0.094
05:48 1023 30.21 852 25.16 -2.7 27.2 67 -8 17.7 -2.383 -0.094
05:49 1023 30.21 852 25.16 -2.6 27.2 67 -8 17.5 -2.332 -0.092
05:50 1023 30.21 852 25.16 -2.6 27.4 66 -8.1 17.3 -2.304 -0.091
05:51 1023 30.21 852 25.16 -2.5 27.5 64 -8.4 16.9 -2.231 -0.088
05:52 1023 30.21 852 25.16 -2.4 27.7 67 -7.8 18 -2.202 -0.087
05:53 1023 30.21 852 25.16 -2.7 27.2 69 -7.5 18.5 -2.389 -0.094
05:54 1023 30.21 852 25.16 -3 26.5 72 -7.4 18.6 -2.69 -0.106
05:55 1023 30.21 852 25.16 -3.3 26.1 72 -7.6 18.3 -2.939 -0.116
05:56 1023 30.21 852 25.16 -3.4 25.9 72 -7.8 18 -3.007 -0.118
05:57 1023 30.21 852 25.16 -3.4 25.8 73 -7.6 18.3 -3.063 -0.121
05:58 1023 30.21 852 25.16 -3.5 25.8 73 -7.6 18.3 -3.052 -0.12
05:59 1023 30.21 852 25.16 -3.4 25.8 71 -8 17.6 -3.058 -0.12
06:00 1023 30.21 852 25.16 -3.3 26.1 70 -8.1 17.4 -2.967 -0.117
06:01 1023 30.21 852 25.16 -3.2 26.2 69 -8.1 17.4 -2.843 -0.112
06:02 1023 30.21 852 25.16 -3.1 26.4 69 -7.9 17.7 -2.831 -0.111
06:03 1023 30.21 852 25.16 -3.1 26.4 68 -8.1 17.3 -2.769 -0.109
06:04 1023 30.21 852 25.16 -3 26.6 68 -8.2 17.3 -2.707 -0.107
06:05 1023 30.21 852 25.16 -2.9 26.8 68 -7.9 17.8 -2.633 -0.104
06:06 1023 30.21 852 25.16 -2.8 26.9 67 -8.1 17.4 -2.52 -0.099
06:07 1023 30.21 852 25.16 -2.6 27.4 65 -8.4 16.9 -2.276 -0.09
06:08 1023 30.21 852 25.16 -2.3 27.9 64 -8.2 17.3 -1.999 -0.079
06:09 1023 30.21 852 25.16 -2.1 28.2 64 -8 17.5 -1.8 -0.071
06:10 1023 30.21 852 25.16 -2 28.5 63 -8.1 17.4 -1.647 -0.065
06:11 1023 30.21 852 25.16 -1.8 28.7 62 -8.1 17.5 -1.533 -0.06
06:12 1023 30.21 852 25.16 -1.7 28.9 60 -8.5 16.8 -1.459 -0.057
06:13 1023 30.21 852 25.16 -1.7 29 60 -8.3 17 -1.374 -0.054
06:14 1023 30.21 852 25.16 -1.6 29.1 61 -8.2 17.2 -1.345 -0.053
06:15 1023 30.21 852 25.16 -1.7 28.9 61 -8.3 17.1 -1.35 -0.053
06:16 1023 30.21 852 25.16 -1.8 28.8 62 -8.1 17.3 -1.498 -0.059
06:17 1023 30.21 852 25.16 -2 28.4 64 -8 17.7 -1.685 -0.066
06:18 1023 30.21 852 25.16 -2.2 28 65 -7.9 17.8 -1.781 -0.07
06:19 1023 30.21 852 25.16 -2.5 27.6 68 -7.6 18.3 -1.991 -0.078
06:20 1023 30.21 852 25.16 -2.6 27.4 71 -7.2 19.1 -2.144 -0.084
06:21 1023 30.21 852 25.16 -2.6 27.3 68 -7.7 18.2 -2.178 -0.086
06:22 1023 30.21 852 25.16 -2.6 27.4 67 -7.8 18 -2.167 -0.085
06:23 1023 30.21 852 25.16 -2.5 27.5 67 -7.7 18.1 -2.128 -0.084
06:24 1023 30.21 852 25.16 -2.5 27.5 67 -7.8 18 -2.139 -0.084
06:25 1023 30.21 852 25.16 -2.5 27.4 67 -7.8 17.9 -2.145 -0.084
06:26 1023 30.21 852 25.16 -2.5 27.5 66 -7.9 17.7 -2.139 -0.084
06:27 1023 30.21 852 25.16 -2.5 27.5 69 -7.4 18.7 -2.162 -0.085
06:28 1023 30.21 852 25.16 -2.8 27 69 -7.8 18 -2.394 -0.094
06:29 1023 30.21 852 25.16 -2.8 27 66 -8.2 17.2 -2.468 -0.097
06:30 1023 30.21 852 25.16 -2.7 27.2 65 -8.4 16.9 -2.411 -0.095
06:31 1023 30.21 852 25.16 -2.6 27.4 67 -7.8 17.9 -2.309 -0.091
06:32 1023 30.21 852 25.16 -2.8 26.9 68 -7.9 17.9 -2.491 -0.098
06:33 1023 30.21 852 25.16 -3.1 26.4 71 -7.8 18 -2.774 -0.109
06:34 1023 30.21 852 25.16 -3.4 25.8 72 -7.8 18 -3.023 -0.119
06:35 1023 30.21 852 25.16 -3.6 25.5 72 -7.9 17.7 -3.204 -0.126
06:36 1023 30.21 852 25.16 -3.7 25.4 73 -7.9 17.9 -3.266 -0.129
06:37 1023 30.21 852 25.16 -3.8 25.2 73 -7.9 17.7 -3.368 -0.133
06:38 1023 30.21 852 25.16 -3.7 25.4 72 -8.1 17.5 -3.334 -0.131
06:39 1023 30.21 852 25.16 -3.6 25.5 71 -8.1 17.5 -3.232 -0.127
06:40 1023 30.21 852 25.16 -3.6 25.5 71 -8.1 17.5 -3.226 -0.127
06:41 1023 30.21 852 25.16 -3.6 25.5 72 -7.9 17.8 -3.226 -0.127
06:42 1023 30.21 852 25.16 -3.8 25.2 74 -7.8 17.9 -3.356 -0.132
06:43 1023 30.21 852 25.16 -3.9 25 73 -8 17.6 -3.515 -0.138
06:44 1023 30.21 852 25.16 -3.9 25 73 -8.1 17.4 -3.492 -0.137
06:45 1023 30.21 852 25.16 -3.8 25.1 71 -8.4 16.9 -3.47 -0.137
06:46 1023 30.21 852 25.16 -3.7 25.4 72 -8 17.7 -3.374 -0.133
06:47 1023 30.21 852 25.16 -3.7 25.4 72 -8 17.6 -3.362 -0.132
06:48 1023 30.21 852 25.16 -3.7 25.3 71 -8.2 17.2 -3.323 -0.131
06:49 1023 30.21 852 25.16 -3.6 25.6 70 -8.2 17.2 -3.244 -0.128
06:50 1023 30.21 852 25.16 -3.6 25.6 71 -8.1 17.4 -3.198 -0.126
06:51 1023 30.21 852 25.16 -3.6 25.5 71 -8 17.5 -3.232 -0.127
06:52 1023 30.21 852 25.16 -3.6 25.4 72 -7.9 17.7 -3.294 -0.13
06:53 1023 30.21 852 25.16 -3.7 25.4 73 -7.9 17.8 -3.339 -0.131
06:54 1023 30.21 852 25.16 -3.7 25.3 74 -7.8 18 -3.345 -0.132
06:55 1023 30.21 852 25.16 -3.7 25.3 74 -7.8 18 -3.362 -0.132
06:56 1023 30.21 852 25.16 -3.7 25.4 74 -7.6 18.3 -3.334 -0.131
06:57 1023 30.21 852 25.16 -3.7 25.3 76 -7.4 18.7 -3.351 -0.132
06:58 1023 30.21 852 25.16 -3.7 25.3 76 -7.3 18.8 -3.266 -0.129
06:59 1023 30.21 852 25.16 -3.7 25.3 76 -7.3 18.9 -3.244 -0.128
07:00 1023 30.21 852 25.16 -3.6 25.5 76 -7.2 19.1 -3.204 -0.126
07:01 1023 30.21 852 25.16 -3.5 25.7 75 -7.4 18.7 -3.141 -0.124
07:02 1023 30.21 852 25.16 -3.4 25.9 73 -7.6 18.4 -3.095 -0.122
07:03 1022 30.18 852 25.16 -3.3 26 72 -7.6 18.3 -2.976 -0.117
07:04 1022 30.18 852 25.16 -3.2 26.2 72 -7.6 18.3 -2.868 -0.113
07:05 1022 30.18 852 25.16 -3.1 26.4 71 -7.6 18.3 -2.772 -0.109
07:06 1022 30.18 852 25.16 -3 26.6 70 -7.6 18.3 -2.624 -0.103
07:07 1022 30.18 852 25.16 -2.9 26.8 69 -7.8 18 -2.561 -0.101
07:08 1022 30.18 852 25.16 -2.8 27 68 -7.9 17.8 -2.493 -0.098
07:09 1022 30.18 852 25.16 -2.7 27.1 68 -7.9 17.7 -2.391 -0.094
07:10 1022 30.18 852 25.16 -2.6 27.2 67 -8 17.7 -2.312 -0.091
07:11 1022 30.18 852 25.16 -2.6 27.4 67 -8 17.6 -2.238 -0.088
07:12 1022 30.18 852 25.16 -2.5 27.5 65 -8.1 17.4 -2.198 -0.087
07:13 1022 30.18 852 25.16 -2.5 27.5 65 -8.2 17.3 -2.169 -0.085
07:14 1022 30.18 852 25.16 -2.5 27.5 65 -8.2 17.2 -2.141 -0.084
07:15 1022 30.18 852 25.16 -2.4 27.7 65 -8.1 17.4 -2.096 -0.083
07:16 1022 30.18 852 25.16 -2.4 27.7 65 -8.1 17.4 -2.067 -0.081
07:17 1022 30.18 852 25.16 -2.4 27.7 65 -8 17.5 -2.05 -0.081
07:18 1022 30.18 851 25.13 -2.4 27.7 64 -8.2 17.2 -2.033 -0.08
07:19 1022 30.18 851 25.13 -2.3 27.9 65 -8 17.5 -1.971 -0.078
07:20 1022 30.18 851 25.13 -2.2 28 65 -7.9 17.8 -1.897 -0.075
07:21 1022 30.18 852 25.16 -2.2 28 66 -7.8 17.9 -1.869 -0.074
07:22 1022 30.18 851 25.13 -2.2 28.1 66 -7.7 18.2 -1.795 -0.071
07:23 1022 30.18 852 25.16 -2.2 28.1 66 -7.8 18 -1.829 -0.072
07:24 1022 30.18 852 25.16 -2.2 28.1 64 -8 17.5 -1.823 -0.072
07:25 1022 30.18 852 25.16 -2.2 28.1 63 -8.3 17.1 -1.817 -0.072
07:26 1022 30.18 852 25.16 -2.1 28.2 64 -8 17.6 -1.795 -0.071
07:27 1022 30.18 852 25.16 -2.2 28.1 64 -8 17.5 -1.806 -0.071
07:28 1022 30.18 852 25.16 -2.2 28.1 65 -7.9 17.8 -1.794 -0.071
07:29 1022 30.18 852 25.16 -2.2 28 65 -7.9 17.8 -1.874 -0.074
07:30 1022 30.18 851 25.13 -2.3 27.9 63 -8.4 16.9 -1.942 -0.076
07:31 1022 30.18 851 25.13 -2.3 27.9 64 -8.2 17.2 -1.936 -0.076
07:32 1022 30.18 851 25.13 -2.2 28 65 -7.9 17.8 -1.919 -0.076
07:33 1022 30.18 851 25.13 -2.3 27.8 66 -7.8 18 -1.925 -0.076
07:34 1022 30.18 851 25.13 -2.3 27.9 67 -7.7 18.2 -1.947 -0.077
07:35 1022 30.18 851 25.13 -2.4 27.8 68 -7.5 18.5 -1.97 -0.078
07:36 1022 30.18 851 25.13 -2.4 27.6 67 -7.7 18.2 -2.026 -0.08
07:37 1022 30.18 851 25.13 -2.5 27.6 69 -7.4 18.7 -2.038 -0.08
07:38 1022 30.18 851 25.13 -2.6 27.4 71 -7.2 19 -2.117 -0.083
07:39 1022 30.18 851 25.13 -2.7 27.2 71 -7.2 19 -2.208 -0.087
07:40 1022 30.18 852 25.16 -2.7 27.2 71 -7.3 18.9 -2.219 -0.087
07:41 1022 30.18 852 25.16 -2.6 27.3 68 -7.7 18.2 -2.174 -0.086
07:42 1022 30.18 851 25.13 -2.4 27.6 67 -7.8 18 -2.049 -0.081
07:43 1022 30.18 852 25.16 -2.4 27.7 67 -7.6 18.3 -1.958 -0.077
07:44 1022 30.18 852 25.16 -2.3 27.8 69 -7.3 18.8 -1.913 -0.075
07:45 1022 30.18 852 25.16 -2.4 27.8 70 -7.1 19.2 -1.93 -0.076
07:46 1022 30.18 852 25.16 -2.4 27.6 69 -7.3 18.8 -2.038 -0.08
07:47 1022 30.18 852 25.16 -2.5 27.5 69 -7.4 18.7 -2.072 -0.082
07:48 1022 30.18 852 25.16 -2.6 27.4 69 -7.4 18.6 -2.157 -0.085
07:49 1022 30.18 852 25.16 -2.6 27.3 71 -7.1 19.2 -2.202 -0.087
07:50 1022 30.18 852 25.16 -2.7 27.1 73 -6.9 19.5 -2.259 -0.089
07:51 1022 30.18 852 25.16 -2.9 26.8 74 -6.9 19.5 -2.446 -0.096
07:52 1022 30.18 852 25.16 -3.1 26.5 75 -6.9 19.5 -2.553 -0.101
07:53 1022 30.18 852 25.16 -3.1 26.4 74 -7.1 19.1 -2.621 -0.103
07:54 1022 30.18 852 25.16 -3 26.6 72 -7.5 18.6 -2.587 -0.102
07:55 1022 30.18 852 25.16 -2.9 26.7 73 -7.1 19.2 -2.531 -0.1
07:56 1023 30.21 852 25.16 -2.9 26.8 74 -6.8 19.7 -2.502 -0.099
07:57 1023 30.21 852 25.16 -2.9 26.7 73 -7.2 19.1 -2.486 -0.098
07:58 1023 30.21 852 25.16 -2.9 26.8 73 -7.2 19.1 -2.498 -0.098
07:59 1023 30.21 852 25.16 -2.9 26.8 72 -7.3 18.8 -2.504 -0.099
08:00 1023 30.21 852 25.16 -2.9 26.8 73 -7.2 19.1 -2.453 -0.097
08:01 1022 30.18 852 25.16 -2.9 26.8 73 -7 19.4 -2.453 -0.097
08:02 1022 30.18 852 25.16 -2.9 26.7 75 -6.8 19.7 -2.476 -0.097
08:03 1022 30.18 852 25.16 -3 26.6 76 -6.6 20.1 -2.488 -0.098
08:04 1022 30.18 852 25.16 -3 26.6 77 -6.5 20.3 -2.522 -0.099
08:05 1022 30.18 852 25.16 -2.9 26.8 77 -6.5 20.4 -2.449 -0.096
08:06 1022 30.18 852 25.16 -2.8 26.9 74 -6.8 19.8 -2.41 -0.095
08:07 1022 30.18 852 25.16 -2.7 27.2 73 -6.9 19.6 -2.285 -0.09
08:08 1022 30.18 852 25.16 -2.5 27.4 70 -7.3 18.9 -2.155 -0.085
08:09 1022 30.18 852 25.16 -2.3 27.8 70 -7 19.4 -2.002 -0.079
08:10 1022 30.18 852 25.16 -2.3 27.9 69 -7.2 19 -1.934 -0.076
08:11 1022 30.18 852 25.16 -2.2 28.1 67 -7.4 18.7 -1.849 -0.073
08:12 1022 30.18 852 25.16 -2.1 28.3 68 -7.2 19 -1.725 -0.068
08:13 1022 30.18 852 25.16 -2 28.5 69 -6.9 19.5 -1.634 -0.064
08:14 1023 30.21 852 25.16 -2 28.4 72 -6.4 20.4 -1.612 -0.063
08:15 1023 30.21 852 25.16 -2.2 28.1 74 -6.2 20.8 -1.748 -0.069
08:16 1023 30.21 852 25.16 -2.3 27.9 71 -6.8 19.7 -1.816 -0.071
08:17 1023 30.21 852 25.16 -2.2 28 72 -6.6 20.1 -1.822 -0.072
08:18 1023 30.21 852 25.16 -2.2 28 74 -6.3 20.7 -1.777 -0.07
08:19 1023 30.21 852 25.16 -2.2 28.1 71 -6.7 20 -1.754 -0.069
08:20 1023 30.21 852 25.16 -2.1 28.3 69 -6.9 19.5 -1.68 -0.066
08:21 1023 30.21 852 25.16 -1.9 28.5 68 -7.1 19.3 -1.539 -0.061
08:22 1023 30.21 852 25.16 -1.8 28.8 68 -6.9 19.6 -1.392 -0.055
08:23 1023 30.21 852 25.16 -1.6 29.1 67 -7 19.4 -1.267 -0.05
08:24 1023 30.21 852 25.16 -1.4 29.4 68 -6.6 20.1 -1.109 -0.044
08:25 1023 30.21 852 25.16 -1.3 29.6 69 -6.3 20.7 -.939 -0.037
08:26 1023 30.21 852 25.16 -1.2 29.8 69 -6.2 20.8 -.82 -0.032
08:27 1023 30.21 852 25.16 -1.2 29.9 70 -6 21.1 -.757 -0.03
08:28 1023 30.21 852 25.16 -1.1 30.1 68 -6.3 20.7 -.678 -0.027
08:29 1023 30.21 852 25.16 -1 30.2 69 -6 21.1 -.559 -0.022
08:30 1023 30.21 852 25.16 -0.9 30.4 68 -6 21.2 -.452 -0.018
08:31 1023 30.21 852 25.16 -0.8 30.5 67 -6.2 20.8 -.367 -0.014
08:32 1023 30.21 852 25.16 -0.7 30.8 66 -6.2 20.9 -.214 -0.008
08:33 1023 30.21 852 25.16 -0.5 31.1 66 -6.1 21.1 -.1 -0.004
08:34 1023 30.21 852 25.16 -0.4 31.3 62 -6.7 19.9 -.021 -0.001
08:35 1023 30.21 852 25.16 -0.3 31.4 62 -6.7 19.9 .024 0.001
08:36 1023 30.21 852 25.16 -0.2 31.6 64 -6.3 20.7 .137 0.005
08:37 1023 30.21 852 25.16 -0.2 31.7 64 -6.2 20.9 .211 0.008
08:38 1023 30.21 852 25.16 -0.1 31.8 60 -6.9 19.6 .313 0.012
08:39 1023 30.21 852 25.16 -0.1 31.9 63 -6.3 20.7 .381 0.015
08:40 1023 30.21 852 25.16 -0 32 66 -5.7 21.7 .472 0.019
08:41 1023 30.21 852 25.16 -0 32 65 -5.9 21.4 .545 0.021
08:42 1023 30.21 852 25.16 0 32.1 65 -5.8 21.5 .579 0.023
08:43 1023 30.21 852 25.16 0.1 32.1 66 -5.6 21.8 .596 0.023
08:44 1023 30.21 852 25.16 0.1 32.1 66 -5.6 21.9 .636 0.025
08:45 1023 30.21 852 25.16 0.1 32.2 64 -5.8 21.5 .698 0.027
08:46 1023 30.21 852 25.16 0.1 32.2 63 -6.1 21.1 .675 0.027
08:47 1023 30.21 852 25.16 0.1 32.2 62 -6.3 20.7 .636 0.025
08:48 1023 30.21 852 25.16 0.1 32.1 65 -5.8 21.5 .624 0.025
08:49 1023 30.21 852 25.16 0.1 32.1 63 -6.1 21 .573 0.023
08:50 1023 30.21 852 25.16 0.1 32.2 62 -6.3 20.7 .573 0.023
08:51 1023 30.21 852 25.16 0.1 32.3 63 -6.1 21 .562 0.022
08:52 1023 30.21 852 25.16 0.3 32.5 63 -5.9 21.3 .698 0.027
08:53 1023 30.21 852 25.16 0.3 32.6 65 -5.5 22.1 .76 0.03
08:54 1023 30.21 852 25.16 0.4 32.7 66 -5.2 22.7 .885 0.035
08:55 1023 30.21 852 25.16 0.5 32.9 66 -5.2 22.6 .97 0.038
08:56 1023 30.21 852 25.16 0.6 33.1 62 -5.9 21.4 1.032 0.041
08:57 1023 30.21 852 25.16 0.7 33.2 62 -5.7 21.7 1.083 0.043
08:58 1023 30.21 852 25.16 0.8 33.4 61 -5.9 21.4 1.185 0.047
08:59 1023 30.21 852 25.16 0.8 33.5 60 -6.1 20.9 1.236 0.049
09:00 1023 30.21 852 25.16 0.9 33.5 57 -6.7 20 1.315 0.052
09:01 1023 30.21 852 25.16 0.9 33.7 58 -6.4 20.5 1.394 0.055
09:02 1023 30.21 852 25.16 1 33.8 60 -5.8 21.5 1.461 0.058
09:03 1023 30.21 852 25.16 1 33.9 62 -5.5 22.2 1.563 0.062
09:04 1023 30.21 852 25.16 1.1 34 57 -6.4 20.5 1.682 0.066
09:05 1023 30.21 852 25.16 1.3 34.4 50 -7.9 17.7 1.749 0.069
09:06 1023 30.21 852 25.16 1.4 34.6 53 -7 19.4 1.879 0.074
09:07 1023 30.21 852 25.16 1.5 34.7 53 -7 19.4 1.958 0.077
09:08 1023 30.21 852 25.16 1.6 34.9 56 -6.3 20.7 2.105 0.083
09:09 1023 30.21 852 25.16 1.7 35 51 -7.3 18.8 2.235 0.088
09:10 1023 30.21 852 25.16 1.7 35.1 57 -6 21.2 2.262 0.089
09:11 1023 30.21 852 25.16 1.8 35.3 55 -6.2 20.8 2.352 0.093
09:12 1023 30.21 852 25.16 1.9 35.4 52 -6.9 19.6 2.409 0.095
09:13 1023 30.21 852 25.16 1.9 35.4 53 -6.6 20.1 2.402 0.095
09:14 1023 30.21 852 25.16 1.9 35.4 52 -6.9 19.6 2.396 0.094
09:15 1023 30.21 852 25.16 1.8 35.3 55 -6.4 20.5 2.339 0.092
09:16 1023 30.21 852 25.16 1.8 35.2 56 -6.1 21.1 2.326 0.092
09:17 1023 30.21 852 25.16 1.8 35.2 53 -6.7 19.9 2.332 0.092
09:18 1023 30.21 852 25.16 1.8 35.3 51 -7.1 19.2 2.377 0.094
09:19 1023 30.21 852 25.16 1.9 35.4 54 -6.5 20.2 2.433 0.096
09:20 1023 30.21 852 25.16 2 35.6 55 -6.2 20.9 2.467 0.097
09:21 1022 30.18 852 25.16 2.1 35.7 52 -6.8 19.7 2.535 0.1
09:22 1022 30.18 852 25.16 2.2 35.9 53 -6.5 20.3 2.607 0.103
09:23 1022 30.18 852 25.16 2.2 36 51 -6.8 19.7 2.574 0.101
09:24 1022 30.18 852 25.16 2.3 36.1 49 -7.5 18.5 2.579 0.102
09:25 1022 30.18 852 25.16 2.3 36.1 49 -7.3 18.9 2.624 0.103
09:26 1023 30.21 852 25.16 2.3 36.2 54 -6.1 21.1 2.675 0.105
09:27 1023 30.21 852 25.16 2.4 36.3 48 -7.4 18.6 2.748 0.108
09:28 1022 30.18 852 25.16 2.5 36.4 48 -7.4 18.7 2.799 0.11
09:29 1022 30.18 852 25.16 2.5 36.5 48 -7.4 18.7 2.787 0.11
09:30 1022 30.18 852 25.16 2.5 36.5 48 -7.4 18.6 2.81 0.111
09:31 1022 30.18 852 25.16 2.5 36.5 51 -6.7 20 2.844 0.112
09:32 1022 30.18 852 25.16 2.6 36.7 49 -7.2 19.1 2.906 0.114
09:33 1022 30.18 852 25.16 2.6 36.7 46 -7.9 17.7 2.894 0.114
09:34 1022 30.18 852 25.16 2.6 36.7 51 -6.6 20 2.927 0.115
09:35 1022 30.18 852 25.16 2.6 36.7 46 -8 17.6 2.972 0.117
09:36 1022 30.18 852 25.16 2.6 36.7 47 -7.7 18.1 2.926 0.115
09:37 1022 30.18 852 25.16 2.6 36.7 49 -7.1 19.3 2.937 0.116
09:38 1022 30.18 852 25.16 2.7 36.8 50 -6.8 19.8 3.005 0.118
09:39 1022 30.18 852 25.16 2.7 36.9 50 -6.7 20 3.078 0.121
09:40 1022 30.18 852 25.16 2.8 37 48 -7 19.4 3.122 0.123
09:41 1022 30.18 852 25.16 2.9 37.1 48 -7.1 19.3 3.139 0.124
09:42 1022 30.18 852 25.16 2.9 37.2 51 -6.2 20.8 3.201 0.126
09:43 1022 30.18 851 25.13 2.9 37.3 50 -6.5 20.4 3.24 0.128
09:44 1022 30.18 851 25.13 3 37.4 49 -6.6 20 3.314 0.13
09:45 1022 30.18 851 25.13 3.1 37.5 47 -7.2 19 3.364 0.132
09:46 1022 30.18 851 25.13 3.1 37.6 47 -7.2 19 3.375 0.133
09:47 1022 30.18 851 25.13 3.1 37.6 48 -6.8 19.7 3.432 0.135
09:48 1022 30.18 851 25.13 3.2 37.7 45 -7.5 18.5 3.442 0.136
09:49 1022 30.18 851 25.13 3.2 37.7 52 -5.8 21.6 3.526 0.139
09:50 1022 30.18 851 25.13 3.3 37.9 44 -7.9 17.8 3.611 0.142
09:51 1022 30.18 851 25.13 3.3 38 46 -7.3 18.8 3.627 0.143
09:52 1022 30.18 851 25.13 3.4 38.1 44 -7.7 18.1 3.717 0.146
09:53 1022 30.18 851 25.13 3.4 38.2 47 -6.9 19.6 3.734 0.147
09:54 1022 30.18 851 25.13 3.5 38.3 44 -7.6 18.4 3.767 0.148
09:55 1022 30.18 851 25.13 3.5 38.4 46 -7.2 19.1 3.829 0.151
09:56 1022 30.18 851 25.13 3.6 38.5 46 -6.9 19.5 3.857 0.152
09:57 1022 30.18 851 25.13 3.6 38.5 43 -7.8 18 3.89 0.153
09:58 1022 30.18 851 25.13 3.6 38.4 44 -7.6 18.3 3.879 0.153
09:59 1022 30.18 851 25.13 3.6 38.4 44 -7.7 18.2 3.834 0.151
10:00 1022 30.18 851 25.13 3.6 38.4 42 -8.3 17 3.918 0.154
10:01 1022 30.18 851 25.13 3.6 38.5 44 -7.6 18.3 3.923 0.154
10:02 1022 30.18 851 25.13 3.6 38.5 44 -7.5 18.5 4.003 0.158
10:03 1022 30.18 851 25.13 3.7 38.7 41 -8.3 17.1 4.019 0.158
10:04 1022 30.18 851 25.13 3.7 38.7 45 -7.2 19.1 4.07 0.16
10:05 1022 30.18 851 25.13 3.8 38.9 47 -6.4 20.5 4.172 0.164
10:06 1022 30.18 851 25.13 4 39.2 50 -5.4 22.2 4.341 0.171
10:07 1022 30.18 851 25.13 4.2 39.5 46 -6.5 20.3 4.5 0.177
10:08 1022 30.18 851 25.13 4.4 39.8 47 -6.1 21 4.715 0.186
10:09 1022 30.18 851 25.13 4.5 40.1 41 -7.5 18.5 4.714 0.186
10:10 1022 30.18 851 25.13 4.4 39.9 41 -7.6 18.2 4.601 0.181
10:11 1022 30.18 851 25.13 4.3 39.8 42 -7.6 18.4 4.573 0.18
10:12 1022 30.18 851 25.13 4.4 39.9 44 -6.8 19.7 4.629 0.182
10:13 1022 30.18 851 25.13 4.4 40 50 -5.2 22.7 4.697 0.185
10:14 1022 30.18 851 25.13 4.5 40.1 46 -6 21.1 4.821 0.19
10:15 1022 30.18 851 25.13 4.6 40.2 42 -7.3 18.9 4.849 0.191
10:16 1022 30.18 851 25.13 4.5 40.1 45 -6.5 20.2 4.793 0.189
10:17 1022 30.18 851 25.13 4.5 40.2 44 -6.6 20.1 4.804 0.189
10:18 1022 30.18 851 25.13 4.6 40.3 43 -6.9 19.5 4.95 0.195
10:19 1022 30.18 851 25.13 4.7 40.4 46 -6 21.2 5.001 0.197
10:20 1022 30.18 851 25.13 4.7 40.5 42 -7.2 19.1 4.96 0.195
10:21 1022 30.18 851 25.13 4.7 40.4 43 -6.9 19.5 4.959 0.195
10:22 1022 30.18 851 25.13 4.7 40.5 42 -7 19.5 4.942 0.195
10:23 1022 30.18 851 25.13 4.7 40.5 43 -6.8 19.8 5.016 0.197
10:24 1022 30.18 851 25.13 4.9 40.8 43 -6.7 19.9 5.202 0.205
10:25 1022 30.18 851 25.13 5 41 40 -7.4 18.6 5.207 0.205
10:26 1022 30.18 851 25.13 5 41 37 -8.4 16.9 5.206 0.205
10:27 1022 30.18 851 25.13 4.9 40.8 38 -8.4 16.8 5.165 0.203
10:28 1022 30.18 851 25.13 4.9 40.9 41 -7.1 19.2 5.199 0.205
10:29 1022 30.18 851 25.13 4.9 40.9 40 -7.4 18.6 5.283 0.208
10:30 1022 30.18 851 25.13 5 40.9 40 -7.5 18.4 5.254 0.207
10:31 1022 30.18 851 25.13 4.9 40.9 39 -7.9 17.8 5.203 0.205
10:32 1022 30.18 851 25.13 4.9 40.8 39 -8 17.5 5.168 0.203
10:33 1022 30.18 851 25.13 4.9 40.9 39 -8 17.5 5.286 0.208
10:34 1022 30.18 851 25.13 5 41 38 -8.3 17 5.286 0.208
10:35 1022 30.18 851 25.13 5 41.1 37 -8.5 16.7 5.314 0.209
10:36 1022 30.18 851 25.13 5 41 40 -7.6 18.3 5.353 0.211
10:37 1022 30.18 851 25.13 5.1 41.2 36 -8.7 16.4 5.398 0.213
10:38 1022 30.18 851 25.13 5.2 41.3 35 -9.1 15.7 5.42 0.213
10:39 1022 30.18 851 25.13 5.2 41.3 35 -9 15.7 5.482 0.216
10:40 1022 30.18 851 25.13 5.2 41.4 35 -9.1 15.7 5.482 0.216
10:41 1022 30.18 851 25.13 5.3 41.5 39 -7.5 18.5 5.538 0.218
10:42 1022 30.18 851 25.13 5.4 41.7 37 -8.3 17.1 5.572 0.219
10:43 1022 30.18 851 25.13 5.4 41.8 36 -8.6 16.4 5.68 0.224
10:44 1022 30.18 851 25.13 5.5 42 37 -8.2 17.3 5.798 0.228
10:45 1022 30.18 851 25.13 5.7 42.2 33 -9.3 15.2 5.922 0.233
10:46 1022 30.18 851 25.13 5.7 42.3 35 -8.5 16.6 5.905 0.232
10:47 1022 30.18 851 25.13 5.8 42.4 33 -9.2 15.4 6.035 0.238
10:48 1022 30.18 851 25.13 5.8 42.4 33 -9.3 15.3 6.018 0.237
10:49 1022 30.18 851 25.13 5.8 42.4 30 -10.3 13.4 5.984 0.236
10:50 1022 30.18 851 25.13 5.7 42.3 34 -8.9 16 5.972 0.235
10:51 1022 30.18 851 25.13 5.8 42.4 33 -9.2 15.5 6.012 0.237
10:52 1022 30.18 851 25.13 5.8 42.5 34 -8.9 16.1 6.068 0.239
10:53 1022 30.18 851 25.13 5.8 42.5 33 -9.2 15.4 6.057 0.238
10:54 1022 30.18 851 25.13 5.9 42.6 31 -9.9 14.2 6.102 0.24
10:55 1022 30.18 851 25.13 5.9 42.6 33 -9.4 15.1 6.159 0.242
10:56 1022 30.18 851 25.13 6 42.8 34 -8.8 16.2 6.317 0.249
10:57 1022 30.18 851 25.13 6.2 43.2 34 -8.6 16.6 6.419 0.253
10:58 1022 30.18 851 25.13 6.3 43.4 31 -9.4 15 6.588 0.259
10:59 1022 30.18 851 25.13 6.5 43.6 31 -9.5 14.8 6.689 0.263
11:00 1022 30.18 851 25.13 6.5 43.7 29 -10.4 13.3 6.74 0.265
11:01 1022 30.18 851 25.13 6.5 43.7 30 -9.7 14.6 6.745 0.266
11:02 1022 30.18 851 25.13 6.5 43.6 29 -10.3 13.5 6.749 0.266
11:03 1022 30.18 851 25.13 6.4 43.5 29 -10.6 13 6.681 0.263
11:04 1022 30.18 851 25.13 6.3 43.4 30 -9.9 14.1 6.681 0.263
11:05 1022 30.18 851 25.13 6.3 43.4 30 -10.2 13.7 6.68 0.263
11:06 1022 30.18 851 25.13 6.4 43.6 29 -10.4 13.3 6.697 0.264
11:07 1022 30.18 851 25.13 6.5 43.7 30 -9.9 14.2 6.747 0.266
11:08 1022 30.18 851 25.13 6.5 43.8 31 -9.2 15.4 6.848 0.27
11:09 1022 30.18 851 25.13 6.6 43.8 29 -10.1 13.9 6.842 0.269
11:10 1022 30.18 851 25.13 6.7 44 29 -10.2 13.7 6.886 0.271
11:11 1022 30.18 851 25.13 6.8 44.3 29 -9.9 14.3 7.04 0.277
11:12 1022 30.18 851 25.13 6.9 44.5 30 -9.4 15.1 7.21 0.284
11:13 1022 30.18 851 25.13 7.1 44.7 31 -9 15.8 7.18 0.283
11:14 1021 30.15 851 25.13 7.1 44.8 28 -10 14 7.26 0.286
11:15 1021 30.15 851 25.13 7.2 45 29 -9.6 14.7 7.29 0.287
11:16 1021 30.15 851 25.13 7.3 45.1 27 -10.6 13 7.31 0.288
11:17 1021 30.15 851 25.13 7.2 44.9 28 -10.2 13.7 7.2 0.283
11:18 1021 30.15 851 25.13 7.1 44.8 29 -10 14.1 7.21 0.284
11:19 1022 30.18 851 25.13 7.1 44.8 31 -9 15.8 7.23 0.285
11:20 1022 30.18 851 25.13 7.1 44.9 30 -9.5 15 7.2 0.283
11:21 1022 30.18 851 25.13 7.1 44.7 32 -8.6 16.6 7.17 0.282
11:22 1021 30.15 851 25.13 7.1 44.7 31 -8.8 16.2 7.19 0.283
11:23 1021 30.15 851 25.13 7.2 44.9 31 -8.8 16.2 7.41 0.292
11:24 1021 30.15 851 25.13 7.3 45.1 31 -8.8 16.2 7.47 0.294
11:25 1021 30.15 851 25.13 7.5 45.4 34 -7.3 18.8 7.59 0.299
11:26 1021 30.15 851 25.13 7.6 45.7 32 -8.2 17.2 7.77 0.306
11:27 1021 30.15 851 25.13 7.7 45.8 29 -9.3 15.3 7.91 0.311
11:28 1021 30.15 851 25.13 7.7 45.9 28 -9.8 14.4 7.93 0.312
11:29 1021 30.15 851 25.13 7.8 46 30 -8.6 16.5 7.9 0.311
11:30 1021 30.15 851 25.13 7.8 46.1 27 -10 14.1 8 0.315
11:31 1021 30.15 851 25.13 7.9 46.2 28 -9.6 14.8 8.06 0.317
11:32 1021 30.15 851 25.13 7.9 46.2 28 -9.7 14.5 7.94 0.313
11:33 1021 30.15 851 25.13 7.8 46.1 27 -10 14 7.79 0.307
11:34 1021 30.15 851 25.13 7.8 46.1 29 -9.1 15.5 7.75 0.305
11:35 1021 30.15 851 25.13 7.9 46.3 28 -9.5 14.9 7.9 0.311
11:36 1021 30.15 851 25.13 8 46.4 29 -8.8 16.1 7.96 0.313
11:37 1021 30.15 851 25.13 7.9 46.3 31 -8.1 17.4 7.89 0.311
11:38 1021 30.15 851 25.13 7.9 46.1 27 -9.9 14.3 7.84 0.309
11:39 1021 30.15 851 25.13 7.8 46 29 -9.1 15.7 7.76 0.306
11:40 1021 30.15 850 25.1 7.7 45.8 29 -9.5 15 7.8 0.307
11:41 1021 30.15 850 25.1 7.7 45.8 29 -9.3 15.2 7.77 0.306
11:42 1021 30.15 850 25.1 7.6 45.6 29 -9.4 15.1 7.7 0.303
11:43 1021 30.15 850 25.1 7.5 45.5 30 -9.1 15.7 7.75 0.305
11:44 1021 30.15 850 25.1 7.7 45.8 31 -8.5 16.8 7.96 0.313
11:45 1021 30.15 850 25.1 7.9 46.2 27 -10 14 8.26 0.325
11:46 1021 30.15 850 25.1 8.1 46.5 28 -9.2 15.5 8.28 0.326
11:47 1021 30.15 850 25.1 8.1 46.6 27 -9.6 14.6 8.31 0.327
11:48 1021 30.15 850 25.1 8.2 46.7 30 -8.4 16.9 8.28 0.326
11:49 1021 30.15 850 25.1 8.2 46.7 28 -9.2 15.4 8.25 0.325
11:50 1021 30.15 850 25.1 8.2 46.7 26 -10.2 13.6 8.25 0.325
11:51 1021 30.15 850 25.1 8.2 46.7 29 -8.6 16.5 8.48 0.334
11:52 1021 30.15 850 25.1 8.4 47.1 32 -7.4 18.7 8.71 0.343
11:53 1021 30.15 850 25.1 8.5 47.2 25 -10.3 13.5 8.73 0.344
11:54 1021 30.15 850 25.1 8.4 47 27 -9.7 14.5 8.44 0.332
11:55 1021 30.15 850 25.1 8.3 47 26 -9.9 14.2 8.48 0.334
11:56 1021 30.15 850 25.1 8.5 47.2 30 -8.1 17.3 8.67 0.341
11:57 1021 30.15 850 25.1 8.6 47.6 29 -8.3 17 8.89 0.35
11:58 1021 30.15 850 25.1 8.8 47.8 26 -9.9 14.2 8.95 0.352
11:59 1021 30.15 850 25.1 8.8 47.8 27 -9.3 15.3 8.89 0.35
12:00 1021 30.15 850 25.1 8.8 47.8 27 -9.4 15.1 8.88 0.35
12:01 1021 30.15 850 25.1 8.8 47.9 25 -10.1 13.8 8.99 0.354
12:02 1021 30.15 850 25.1 8.9 48 27 -9.2 15.4 9.05 0.356
12:03 1021 30.15 850 25.1 8.9 47.9 26 -9.5 14.9 9.01 0.355
12:04 1021 30.15 850 25.1 8.8 47.9 26 -9.6 14.7 8.88 0.35
12:05 1021 30.15 850 25.1 8.7 47.7 25 -10 14 8.8 0.346
12:06 1021 30.15 850 25.1 8.6 47.4 27 -9.3 15.2 8.74 0.344
12:07 1021 30.15 850 25.1 8.5 47.4 26 -9.7 14.5 8.84 0.348
12:08 1021 30.15 850 25.1 8.7 47.6 26 -9.6 14.7 9.03 0.356
12:09 1021 30.15 850 25.1 8.8 47.9 26 -9.6 14.7 9.04 0.356
12:10 1021 30.15 850 25.1 8.9 48 27 -9.3 15.2 9.09 0.358
12:11 1021 30.15 850 25.1 9.1 48.4 25 -9.8 14.4 9.31 0.367
12:12 1021 30.15 850 25.1 9.3 48.7 27 -8.8 16.2 9.44 0.372
12:13 1021 30.15 850 25.1 9.3 48.7 25 -9.6 14.6 9.4 0.37
12:14 1021 30.15 850 25.1 9.1 48.3 26 -9.4 15 9.2 0.362
12:15 1021 30.15 850 25.1 9 48.2 25 -9.9 14.2 9.14 0.36
12:16 1021 30.15 850 25.1 9 48.3 26 -9.3 15.2 9.22 0.363
12:17 1021 30.15 850 25.1 9.1 48.4 25 -9.7 14.5 9.34 0.368
12:18 1021 30.15 850 25.1 9.2 48.5 26 -9.2 15.4 9.4 0.37
12:19 1021 30.15 850 25.1 9.3 48.7 27 -8.9 16 9.41 0.37
12:20 1021 30.15 850 25.1 9.4 48.9 24 -10 13.9 9.62 0.379
12:21 1021 30.15 850 25.1 9.4 48.8 25 -9.8 14.4 9.63 0.379
12:22 1021 30.15 850 25.1 9.3 48.7 24 -10.2 13.6 9.63 0.379
12:23 1021 30.15 850 25.1 9.1 48.4 24 -10.5 13.1 9.61 0.378
12:24 1021 30.15 850 25.1 9.1 48.3 25 -10.2 13.7 9.51 0.374
12:25 1021 30.15 850 25.1 9 48.2 25 -10.2 13.7 9.51 0.374
12:26 1021 30.15 850 25.1 8.9 48.1 25 -9.8 14.3 9.46 0.372
12:27 1021 30.15 850 25.1 8.9 48.1 27 -8.9 15.9 9.52 0.375
12:28 1021 30.15 850 25.1 9 48.2 26 -9.7 14.6 9.64 0.38
12:29 1021 30.15 850 25.1 8.9 48.1 27 -9.1 15.6 9.6 0.378
12:30 1021 30.15 850 25.1 8.9 48 27 -9.4 15.2 9.53 0.375
12:31 1020 30.12 850 25.1 8.9 48.1 28 -8.4 16.8 9.55 0.376
12:32 1020 30.12 850 25.1 9 48.1 27 -9.1 15.7 9.54 0.376
12:33 1020 30.12 850 25.1 8.9 48.1 25 -9.8 14.3 9.44 0.372
12:34 1020 30.12 850 25.1 8.9 48 25 -9.9 14.1 9.4 0.37
12:35 1020 30.12 850 25.1 8.9 48 26 -9.4 15 9.4 0.37
12:36 1020 30.12 850 25.1 8.9 48.1 25 -10 13.9 9.47 0.373
12:37 1020 30.12 850 25.1 8.9 47.9 25 -10.2 13.7 9.39 0.37
12:38 1020 30.12 850 25.1 8.9 48.1 26 -9.4 15 9.39 0.37
12:39 1020 30.12 850 25.1 9.1 48.3 25 -9.8 14.3 9.5 0.374
12:40 1020 30.12 850 25.1 9.2 48.6 26 -9.3 15.2 9.61 0.378
12:41 1020 30.12 850 25.1 9.3 48.7 24 -10.2 13.7 9.78 0.385
12:42 1020 30.12 850 25.1 9.2 48.6 24 -10.3 13.4 9.85 0.388
12:43 1020 30.12 850 25.1 9.2 48.5 24 -10.4 13.3 9.88 0.389
12:44 1020 30.12 849 25.07 9.2 48.6 24 -10.3 13.4 9.89 0.389
12:45 1020 30.12 849 25.07 9.2 48.6 24 -10.1 13.9 9.85 0.388
12:46 1020 30.12 849 25.07 9.2 48.5 24 -10.3 13.5 9.83 0.387
12:47 1020 30.12 849 25.07 9.1 48.3 24 -10.5 13 9.78 0.385
12:48 1020 30.12 849 25.07 9.1 48.3 26 -9.6 14.7 9.8 0.386
12:49 1020 30.12 849 25.07 9.1 48.5 24 -10.3 13.5 9.88 0.389
12:50 1020 30.12 849 25.07 9.2 48.6 24 -10.2 13.7 9.91 0.39
12:51 1020 30.12 849 25.07 9.3 48.8 25 -9.9 14.2 10.05 0.396
12:52 1020 30.12 849 25.07 9.3 48.8 24 -10.1 13.7 10.01 0.394
12:53 1020 30.12 849 25.07 9.4 48.9 25 -9.5 14.9 10.03 0.395
12:54 1020 30.12 849 25.07 9.4 49 23 -10.5 13.1 10.09 0.397
12:55 1020 30.12 849 25.07 9.6 49.2 23 -10.4 13.2 10.19 0.401
12:56 1020 30.12 849 25.07 9.7 49.5 23 -10.5 13 10.33 0.407
12:57 1020 30.12 849 25.07 9.9 49.8 25 -9.1 15.7 10.44 0.411
12:58 1020 30.12 849 25.07 10.1 50.1 24 -9.7 14.5 10.56 0.416
12:59 1020 30.12 849 25.07 10 50 23 -10.5 13.2 10.63 0.419
13:00 1020 30.12 849 25.07 9.9 49.8 26 -8.6 16.5 10.47 0.412
13:01 1020 30.12 849 25.07 9.8 49.7 23 -10.1 13.8 10.38 0.409
13:02 1020 30.12 849 25.07 9.7 49.5 24 -10 14.1 10.38 0.409
13:03 1020 30.12 849 25.07 9.6 49.3 24 -9.9 14.2 10.25 0.404
13:04 1020 30.12 849 25.07 9.6 49.2 25 -9.8 14.4 10.16 0.4
13:05 1020 30.12 849 25.07 9.5 49.2 25 -9.6 14.8 10.1 0.398
13:06 1020 30.12 849 25.07 9.5 49.2 25 -9.5 15 10.1 0.398
13:07 1020 30.12 849 25.07 9.5 49.1 28 -8.1 17.4 10 0.394
13:08 1020 30.12 849 25.07 9.4 48.9 25 -9.6 14.7 9.93 0.391
13:09 1020 30.12 849 25.07 9.4 48.9 25 -9.8 14.4 9.91 0.39
13:10 1020 30.12 849 25.07 9.4 48.8 26 -9 15.8 9.89 0.389
13:11 1020 30.12 849 25.07 9.4 49 26 -8.9 15.9 9.99 0.393
13:12 1020 30.12 849 25.07 9.6 49.2 25 -9.7 14.5 10.08 0.397
13:13 1020 30.12 849 25.07 9.7 49.4 26 -8.8 16.2 10.16 0.4
13:14 1020 30.12 849 25.07 9.7 49.4 28 -8 17.5 10.18 0.401
13:15 1020 30.12 849 25.07 9.5 49.1 27 -8.5 16.7 10.03 0.395
13:16 1020 30.12 849 25.07 9.5 49 29 -7.7 18.1 9.95 0.392
13:17 1020 30.12 849 25.07 9.4 49 26 -9.3 15.2 9.94 0.391
13:18 1020 30.12 849 25.07 9.5 49.1 27 -8.8 16.2 9.96 0.392
13:19 1020 30.12 849 25.07 9.5 49.2 23 -10.7 12.8 9.98 0.393
13:20 1020 30.12 849 25.07 9.5 49.1 23 -10.6 13 9.98 0.393
13:21 1020 30.12 849 25.07 9.5 49 23 -10.4 13.3 10.03 0.395
13:22 1020 30.12 849 25.07 9.5 49.2 24 -9.8 14.3 10.07 0.396
13:23 1020 30.12 849 25.07 9.7 49.5 26 -9.1 15.6 10.26 0.404
13:24 1020 30.12 849 25.07 9.8 49.6 26 -8.9 16 10.39 0.409
13:25 1020 30.12 849 25.07 9.9 49.8 24 -10 14.1 10.48 0.413
13:26 1020 30.12 849 25.07 9.9 49.8 24 -9.8 14.4 10.44 0.411
13:27 1020 30.12 849 25.07 9.9 49.9 23 -10.1 13.7 10.39 0.409
13:28 1020 30.12 849 25.07 9.9 49.7 23 -10.1 13.8 10.37 0.408
13:29 1020 30.12 849 25.07 9.9 49.9 24 -9.7 14.5 10.41 0.41
13:30 1020 30.12 849 25.07 10.1 50.1 25 -8.9 16.1 10.48 0.413
13:31 1020 30.12 849 25.07 10.1 50.1 24 -9.7 14.5 10.63 0.419
13:32 1020 30.12 849 25.07 10.1 50.1 23 -10 14.1 10.6 0.417
13:33 1020 30.12 849 25.07 10.2 50.3 24 -9.6 14.8 10.63 0.419
13:34 1020 30.12 849 25.07 10.3 50.6 26 -8.5 16.7 10.73 0.422
13:35 1020 30.12 849 25.07 10.5 51 23 -9.7 14.5 11 0.433
13:36 1020 30.12 849 25.07 10.6 51 25 -8.9 16 11.03 0.434
13:37 1020 30.12 849 25.07 10.6 51 24 -9.4 15.1 11.08 0.436
13:38 1020 30.12 849 25.07 10.8 51.4 24 -9.1 15.7 11.27 0.444
13:39 1020 30.12 849 25.07 11 51.8 23 -9.1 15.6 11.54 0.454
13:40 1020 30.12 849 25.07 11.2 52.1 26 -7.4 18.7 11.82 0.465
13:41 1020 30.12 849 25.07 11.4 52.4 24 -8.6 16.6 11.93 0.47
13:42 1020 30.12 849 25.07 11.3 52.4 21 -10.1 13.9 11.88 0.468
13:43 1019 30.09 849 25.07 11.3 52.4 23 -9 15.8 11.92 0.469
13:44 1019 30.09 849 25.07 11.4 52.5 22 -9.8 14.4 11.98 0.472
13:45 1019 30.09 849 25.07 11.4 52.4 27 -6.9 19.6 11.93 0.47
13:46 1019 30.09 849 25.07 11.4 52.5 21 -9.9 14.2 11.98 0.472
13:47 1019 30.09 849 25.07 11.2 52.2 23 -9.2 15.4 11.86 0.467
13:48 1019 30.09 849 25.07 11.1 52.1 24 -8.4 16.8 11.74 0.462
13:49 1019 30.09 849 25.07 11.1 51.9 25 -8.2 17.3 11.62 0.457
13:50 1019 30.09 849 25.07 11 51.8 25 -8.1 17.4 11.59 0.456
13:51 1019 30.09 849 25.07 11 51.8 26 -7.9 17.8 11.55 0.455
13:52 1019 30.09 848 25.04 11.1 51.9 25 -8.3 17 11.6 0.457
13:53 1019 30.09 848 25.04 11.1 51.9 24 -8.9 15.9 11.6 0.457
13:54 1019 30.09 848 25.04 11 51.8 23 -9.6 14.7 11.6 0.457
13:55 1019 30.09 848 25.04 11 51.8 24 -9 15.8 11.52 0.454
13:56 1019 30.09 848 25.04 11 51.8 22 -10.1 13.8 11.48 0.452
13:57 1019 30.09 848 25.04 10.9 51.6 24 -8.9 15.9 11.4 0.449
13:58 1019 30.09 848 25.04 10.9 51.6 25 -8.2 17.3 11.36 0.447
13:59 1019 30.09 848 25.04 10.8 51.5 22 -9.9 14.2 11.33 0.446
14:00 1019 30.09 848 25.04 10.8 51.5 23 -9.2 15.4 11.28 0.444
14:01 1019 30.09 848 25.04 10.8 51.5 25 -8.2 17.3 11.36 0.447
14:02 1019 30.09 848 25.04 11 51.7 23 -9.5 14.9 11.44 0.45
14:03 1019 30.09 848 25.04 11 51.9 25 -8.4 16.8 11.47 0.452
14:04 1019 30.09 848 25.04 11 51.8 27 -7.2 19 11.46 0.451
14:05 1019 30.09 848 25.04 10.9 51.7 25 -8.3 17 11.39 0.448
14:06 1019 30.09 848 25.04 10.9 51.6 22 -9.9 14.1 11.32 0.446
14:07 1019 30.09 848 25.04 10.9 51.5 25 -8.6 16.5 11.29 0.444
14:08 1019 30.09 848 25.04 10.9 51.5 26 -8 17.5 11.32 0.446
14:09 1019 30.09 848 25.04 10.9 51.6 25 -8.3 17 11.32 0.446
14:10 1019 30.09 848 25.04 11 51.7 22 -10.2 13.6 11.37 0.448
14:11 1019 30.09 848 25.04 10.9 51.7 23 -9.5 15 11.38 0.448
14:12 1019 30.09 848 25.04 10.9 51.7 23 -9.4 15 11.38 0.448
14:13 1019 30.09 848 25.04 10.9 51.7 22 -10.1 13.8 11.45 0.451
14:14 1019 30.09 848 25.04 11.1 52 23 -9.4 15.1 11.58 0.456
14:15 1019 30.09 848 25.04 11.2 52.2 22 -9.9 14.1 11.7 0.461
14:16 1019 30.09 848 25.04 11.3 52.3 21 -10.4 13.3 11.7 0.461
14:17 1019 30.09 848 25.04 11.3 52.4 21 -10.4 13.2 11.77 0.463
14:18 1019 30.09 848 25.04 11.5 52.7 21 -10.3 13.4 11.96 0.471
14:19 1019 30.09 848 25.04 11.7 53.1 21 -10.2 13.7 12.18 0.48
14:20 1019 30.09 848 25.04 11.9 53.5 20 -10.6 12.9 12.23 0.481
14:21 1019 30.09 848 25.04 12.1 53.7 21 -9.7 14.6 12.29 0.484
14:22 1019 30.09 848 25.04 12.2 54 21 -9.4 15 12.53 0.493
14:23 1019 30.09 848 25.04 12.4 54.2 22 -8.7 16.3 12.74 0.502
14:24 1019 30.09 848 25.04 12.5 54.4 20 -9.7 14.5 12.93 0.509
14:25 1019 30.09 848 25.04 12.6 54.6 19 -10.4 13.3 13.06 0.514
14:26 1019 30.09 848 25.04 12.6 54.6 20 -9.8 14.3 13.06 0.514
14:27 1019 30.09 848 25.04 12.5 54.5 20 -9.7 14.5 12.93 0.509
14:28 1019 30.09 848 25.04 12.4 54.3 20 -10.2 13.6 12.64 0.498
14:29 1019 30.09 848 25.04 12.1 53.8 20 -10.1 13.8 12.33 0.485
14:30 1019 30.09 848 25.04 12 53.7 21 -9.4 15 12.2 0.48
14:31 1019 30.09 848 25.04 11.9 53.5 22 -8.9 16 12.21 0.481
14:32 1019 30.09 848 25.04 12 53.5 22 -9.3 15.3 12.24 0.482
14:33 1019 30.09 848 25.04 11.9 53.5 22 -8.9 16 12.23 0.481
14:34 1019 30.09 848 25.04 11.9 53.5 23 -8.7 16.3 12.28 0.483
14:35 1019 30.09 848 25.04 12.1 53.8 21 -9.4 15.1 12.35 0.486
14:36 1019 30.09 848 25.04 12.2 54 21 -9.6 14.8 12.42 0.489
14:37 1019 30.09 848 25.04 12.3 54.1 22 -8.7 16.3 12.48 0.491
14:38 1019 30.09 848 25.04 12.4 54.4 20 -9.9 14.2 12.58 0.495
14:39 1019 30.09 848 25.04 12.4 54.4 19 -10.9 12.5 12.59 0.496
14:40 1019 30.09 848 25.04 12.5 54.5 19 -10.8 12.5 12.65 0.498
14:41 1019 30.09 848 25.04 12.7 54.8 18 -11.3 11.6 12.74 0.502
14:42 1019 30.09 848 25.04 12.7 54.9 19 -10.3 13.5 12.84 0.506
14:43 1018 30.06 848 25.04 12.8 55 16 -12.5 9.4 12.93 0.509
14:44 1018 30.06 848 25.04 12.7 54.8 16 -12.4 9.7 12.89 0.507
14:45 1018 30.06 848 25.04 12.6 54.8 17 -11.5 11.3 12.9 0.508
14:46 1018 30.06 848 25.04 12.6 54.7 19 -10.5 13.1 12.88 0.507
14:47 1018 30.06 848 25.04 12.7 54.8 20 -10 14 12.96 0.51
14:48 1018 30.06 848 25.04 12.8 55 18 -10.7 12.8 12.96 0.51
14:49 1018 30.06 848 25.04 12.7 54.9 16 -12.1 10.1 12.91 0.508
14:50 1018 30.06 848 25.04 12.5 54.6 20 -9.9 14.2 12.8 0.504
14:51 1018 30.06 847 25.01 12.6 54.6 20 -9.9 14.2 12.83 0.505
14:52 1018 30.06 847 25.01 12.6 54.6 20 -9.8 14.4 12.87 0.507
14:53 1018 30.06 847 25.01 12.6 54.6 19 -10.7 12.7 12.89 0.507
14:54 1018 30.06 847 25.01 12.5 54.4 20 -9.7 14.5 12.77 0.503
14:55 1018 30.06 847 25.01 12.4 54.4 18 -11.4 11.4 12.74 0.502
14:56 1018 30.06 847 25.01 12.5 54.5 18 -11.1 11.9 12.77 0.503
14:57 1018 30.06 847 25.01 12.5 54.5 21 -9.4 15 12.79 0.504
14:58 1018 30.06 847 25.01 12.4 54.3 22 -8.8 16.2 12.68 0.499
14:59 1018 30.06 847 25.01 12.3 54.1 24 -7.6 18.3 12.59 0.496
15:00 1018 30.06 847 25.01 12.1 53.8 21 -9.8 14.4 12.46 0.491
15:01 1018 30.06 847 25.01 12 53.7 18 -11.7 11 12.4 0.488
15:02 1018 30.06 847 25.01 12 53.7 20 -10.4 13.3 12.36 0.487
15:03 1018 30.06 847 25.01 12 53.6 20 -10.1 13.8 12.29 0.484
15:04 1018 30.06 847 25.01 12 53.5 19 -11.2 11.8 12.3 0.484
15:05 1018 30.06 847 25.01 12 53.6 21 -9.7 14.6 12.35 0.486
15:06 1018 30.06 847 25.01 11.9 53.5 20 -10.4 13.2 12.3 0.484
15:07 1018 30.06 847 25.01 11.9 53.4 22 -9.3 15.3 12.27 0.483
15:08 1018 30.06 847 25.01 11.8 53.3 21 -9.6 14.7 12.17 0.479
15:09 1018 30.06 847 25.01 11.7 53.1 19 -11.1 12.1 12.06 0.475
15:10 1018 30.06 847 25.01 11.6 52.9 23 -8.6 16.6 11.98 0.472
15:11 1018 30.06 847 25.01 11.6 52.9 22 -9.5 14.8 11.94 0.47
15:12 1018 30.06 847 25.01 11.6 52.8 21 -10.2 13.6 11.81 0.465
15:13 1018 30.06 847 25.01 11.6 52.9 24 -8.2 17.2 11.87 0.467
15:14 1018 30.06 847 25.01 11.6 52.9 23 -8.9 16 12 0.472
15:15 1018 30.06 847 25.01 11.7 53.1 24 -8.2 17.3 12.03 0.474
15:16 1018 30.06 847 25.01 11.7 53 24 -8 17.7 12 0.472
15:17 1018 30.06 847 25.01 11.6 52.9 26 -7.4 18.7 11.96 0.471
15:18 1018 30.06 847 25.01 11.6 52.8 25 -8 17.6 11.9 0.469
15:19 1018 30.06 847 25.01 11.6 52.8 22 -9.2 15.5 11.87 0.467
15:20 1018 30.06 847 25.01 11.5 52.7 25 -7.9 17.8 11.83 0.466
15:21 1018 30.06 847 25.01 11.5 52.7 23 -8.9 15.9 11.79 0.464
15:22 1018 30.06 847 25.01 11.5 52.7 22 -9.8 14.4 11.75 0.463
15:23 1018 30.06 847 25.01 11.4 52.6 24 -8.3 17 11.74 0.462
15:24 1018 30.06 847 25.01 11.5 52.7 22 -9.2 15.4 11.79 0.464
15:25 1018 30.06 847 25.01 11.4 52.6 23 -9 15.7 11.79 0.464
15:26 1018 30.06 847 25.01 11.5 52.6 23 -9.2 15.5 11.84 0.466
15:27 1018 30.06 847 25.01 11.5 52.6 25 -8 17.6 11.79 0.464
15:28 1018 30.06 847 25.01 11.4 52.6 24 -8.5 16.7 11.81 0.465
15:29 1018 30.06 847 25.01 11.5 52.7 23 -8.9 16 11.87 0.467
15:30 1018 30.06 847 25.01 11.5 52.8 24 -8.2 17.3 11.94 0.47
15:31 1018 30.06 847 25.01 11.6 52.8 25 -7.7 18.1 12 0.472
15:32 1018 30.06 847 25.01 11.6 52.9 24 -8 17.6 12.02 0.473
15:33 1018 30.06 847 25.01 11.6 52.9 24 -8.4 17 12 0.472
15:34 1018 30.06 847 25.01 11.7 53 30 -5.4 22.2 12.06 0.475
15:35 1018 30.06 847 25.01 11.7 53 31 -4.8 23.4 12.09 0.476
15:36 1018 30.06 847 25.01 11.7 53 27 -6.4 20.4 12.11 0.477
15:37 1018 30.06 847 25.01 11.7 53 36 -2.9 26.8 12.15 0.478
15:38 1018 30.06 847 25.01 11.7 53 30 -5.3 22.4 12.18 0.48
15:39 1018 30.06 847 25.01 11.7 53 29 -5.6 21.9 12.16 0.479
15:40 1018 30.06 847 25.01 11.7 53 28 -6.1 21 12.12 0.477
15:41 1018 30.06 847 25.01 11.7 53.1 27 -6.6 20.2 12.11 0.477
15:42 1018 30.06 847 25.01 11.7 53 30 -5.1 22.8 12.11 0.477
15:43 1017 30.03 847 25.01 11.7 53 23 -8.9 16 12.07 0.475
15:44 1017 30.03 847 25.01 11.7 53.1 24 -8.4 16.9 12.1 0.476
15:45 1017 30.03 847 25.01 11.7 53.1 28 -6.4 20.5 12.15 0.478
15:46 1017 30.03 847 25.01 11.7 53 28 -6 21.3 12.15 0.478
15:47 1017 30.03 847 25.01 11.7 53.1 25 -7.8 17.9 12.11 0.477
15:48 1017 30.03 847 25.01 11.8 53.2 26 -7 19.3 12.2 0.48
15:49 1017 30.03 847 25.01 11.8 53.2 26 -6.9 19.6 12.25 0.482
15:50 1017 30.03 846 24.98 11.8 53.3 29 -5.6 21.9 12.23 0.481
15:51 1017 30.03 846 24.98 11.8 53.2 30 -5.1 22.8 12.18 0.48
15:52 1017 30.03 846 24.98 11.7 53.1 24 -8 17.6 12.12 0.477
15:53 1017 30.03 846 24.98 11.8 53.2 25 -7.8 17.9 12.18 0.48
15:54 1017 30.03 846 24.98 11.8 53.3 27 -6.7 19.9 12.24 0.482
15:55 1017 30.03 846 24.98 11.8 53.2 23 -8.9 16 12.16 0.479
15:56 1017 30.03 846 24.98 11.8 53.3 24 -8.2 17.2 12.18 0.48
15:57 1017 30.03 846 24.98 11.8 53.2 23 -8.7 16.3 12.24 0.482
15:58 1017 30.03 846 24.98 11.8 53.2 24 -8.1 17.4 12.18 0.48
15:59 1017 30.03 846 24.98 11.8 53.2 26 -7 19.3 12.17 0.479
16:00 1017 30.03 846 24.98 11.7 53.1 27 -6.5 20.4 12.13 0.478
16:01 1017 30.03 846 24.98 11.6 52.9 27 -6.6 20.1 12.07 0.475
16:02 1017 30.03 846 24.98 11.5 52.8 31 -4.9 23.2 12.02 0.473
16:03 1017 30.03 846 24.98 11.5 52.7 29 -6 21.1 11.96 0.471
16:04 1017 30.03 846 24.98 11.6 52.8 26 -7.1 19.2 11.97 0.471
16:05 1017 30.03 846 24.98 11.6 52.9 26 -7.2 19.1 12.02 0.473
16:06 1017 30.03 846 24.98 11.6 52.9 27 -6.8 19.7 12.07 0.475
16:07 1017 30.03 846 24.98 11.7 53 28 -6 21.2 12.09 0.476
16:08 1017 30.03 846 24.98 11.6 52.8 29 -6 21.2 12.06 0.475
16:09 1017 30.03 846 24.98 11.6 52.8 26 -7.3 18.8 11.95 0.47
16:10 1017 30.03 846 24.98 11.6 52.9 25 -8 17.7 12.04 0.474
16:11 1017 30.03 846 24.98 11.7 53.1 28 -6.2 20.8 12.12 0.477
16:12 1017 30.03 846 24.98 11.7 53.1 22 -9.1 15.7 12.14 0.478
16:13 1017 30.03 846 24.98 11.8 53.3 27 -6.7 19.9 12.24 0.482
16:14 1017 30.03 846 24.98 11.9 53.5 25 -7.7 18.1 12.31 0.485
16:15 1017 30.03 846 24.98 11.9 53.5 24 -7.9 17.8 12.37 0.487
16:16 1017 30.03 846 24.98 11.9 53.4 25 -7.6 18.3 12.28 0.483
16:17 1017 30.03 846 24.98 11.8 53.3 23 -8.5 16.7 12.23 0.481
16:18 1017 30.03 846 24.98 11.8 53.3 27 -6.4 20.5 12.27 0.483
16:19 1017 30.03 846 24.98 11.8 53.2 29 -5.8 21.6 12.2 0.48
16:20 1017 30.03 846 24.98 11.7 53 31 -5 22.9 12.12 0.477
16:21 1017 30.03 846 24.98 11.6 52.9 26 -7.2 19.1 12.01 0.473
16:22 1017 30.03 846 24.98 11.7 53.1 29 -5.9 21.5 12.13 0.478
16:23 1017 30.03 846 24.98 11.8 53.3 24 -7.9 17.7 12.23 0.481
16:24 1017 30.03 846 24.98 11.9 53.4 22 -8.9 16 12.3 0.484
16:25 1017 30.03 846 24.98 12 53.5 25 -7.3 18.8 12.37 0.487
16:26 1017 30.03 846 24.98 12 53.6 26 -7.1 19.3 12.41 0.489
16:27 1017 30.03 846 24.98 12 53.6 27 -6.6 20.2 12.45 0.49
16:28 1017 30.03 846 24.98 12.1 53.7 26 -7 19.4 12.45 0.49
16:29 1017 30.03 846 24.98 12.1 53.7 25 -7.2 19 12.53 0.493
16:30 1017 30.03 846 24.98 12.2 53.9 24 -7.7 18.1 12.57 0.495
16:31 1017 30.03 846 24.98 12.3 54.1 25 -7.2 19 12.69 0.5
16:32 1017 30.03 846 24.98 12.4 54.2 25 -7.2 19.1 12.74 0.502
16:33 1017 30.03 846 24.98 12.3 54.2 24 -7.4 18.7 12.73 0.501
16:34 1017 30.03 846 24.98 12.4 54.3 26 -6.3 20.7 12.79 0.504
16:35 1017 30.03 846 24.98 12.4 54.3 26 -6.4 20.5 12.79 0.504
16:36 1017 30.03 846 24.98 12.4 54.2 26 -6.7 20 12.77 0.503
16:37 1017 30.03 846 24.98 12.4 54.3 22 -8.8 16.1 12.72 0.501
16:38 1017 30.03 846 24.98 12.4 54.2 27 -6.1 20.9 12.78 0.503
16:39 1017 30.03 846 24.98 12.3 54.1 27 -5.9 21.4 12.7 0.5
16:40 1017 30.03 846 24.98 12.2 54 25 -7 19.4 12.63 0.497
16:41 1017 30.03 846 24.98 12.2 54 28 -5.8 21.6 12.62 0.497
16:42 1017 30.03 846 24.98 12.2 54 24 -7.5 18.6 12.66 0.498
16:43 1017 30.03 846 24.98 12.3 54.1 24 -7.8 17.9 12.7 0.5
16:44 1017 30.03 846 24.98 12.4 54.3 25 -7.1 19.2 12.8 0.504
16:45 1017 30.03 846 24.98 12.4 54.3 26 -6.6 20.1 12.79 0.504
16:46 1017 30.03 846 24.98 12.4 54.3 26 -6.7 20 12.82 0.505
16:47 1017 30.03 846 24.98 12.4 54.4 24 -7.7 18.2 12.83 0.505
16:48 1017 30.03 846 24.98 12.5 54.4 23 -7.9 17.7 12.88 0.507
16:49 1017 30.03 846 24.98 12.5 54.6 25 -7.2 19.1 12.9 0.508
16:50 1017 30.03 846 24.98 12.5 54.5 27 -6.2 20.9 12.91 0.508
16:51 1017 30.03 846 24.98 12.4 54.4 23 -8 17.6 12.83 0.505
16:52 1017 30.03 846 24.98 12.4 54.2 28 -5.6 21.9 12.76 0.502
16:53 1017 30.03 846 24.98 12.2 54 26 -6.6 20.1 12.62 0.497
16:54 1017 30.03 846 24.98 12.2 53.9 24 -7.5 18.5 12.63 0.497
16:55 1017 30.03 846 24.98 12.3 54.1 23 -8.1 17.4 12.64 0.498
16:56 1017 30.03 846 24.98 12.4 54.2 24 -7.5 18.4 12.72 0.501
16:57 1017 30.03 846 24.98 12.3 54.2 21 -9.1 15.6 12.73 0.501
16:58 1017 30.03 846 24.98 12.4 54.2 22 -8.6 16.5 12.72 0.501
16:59 1017 30.03 846 24.98 12.3 54.1 24 -7.5 18.6 12.67 0.499
17:00 1017 30.03 846 24.98 12.3 54.1 24 -7.6 18.3 12.62 0.497
17:01 1017 30.03 846 24.98 12.2 54 25 -7 19.5 12.65 0.498
17:02 1017 30.03 846 24.98 12.3 54.1 24 -7.5 18.5 12.68 0.499
17:03 1017 30.03 846 24.98 12.3 54.2 22 -8.9 16 12.73 0.501
17:04 1017 30.03 846 24.98 12.4 54.4 24 -7.4 18.7 12.87 0.507
17:05 1017 30.03 846 24.98 12.6 54.7 22 -8.5 16.7 13.03 0.513
17:06 1017 30.03 846 24.98 12.8 55 27 -5.7 21.7 13.17 0.519
17:07 1017 30.03 846 24.98 12.8 55.1 24 -7.2 19.1 13.25 0.522
17:08 1017 30.03 846 24.98 12.8 55 27 -5.7 21.8 13.2 0.52
17:09 1017 30.03 846 24.98 12.7 54.9 22 -8.2 17.3 13.11 0.516
17:10 1017 30.03 846 24.98 12.6 54.7 25 -6.8 19.7 13.03 0.513
17:11 1017 30.03 846 24.98 12.5 54.5 26 -6.3 20.7 12.92 0.509
17:12 1017 30.03 846 24.98 12.4 54.3 27 -6.2 20.9 12.75 0.502
17:13 1017 30.03 846 24.98 12.1 53.9 23 -8.1 17.4 12.53 0.493
17:14 1017 30.03 846 24.98 12 53.6 25 -7.3 18.8 12.38 0.487
17:15 1017 30.03 846 24.98 11.9 53.5 26 -6.9 19.7 12.31 0.485
17:16 1017 30.03 846 24.98 11.8 53.3 30 -5.3 22.4 12.24 0.482
17:17 1017 30.03 846 24.98 11.7 53.1 31 -5 23 12.14 0.478
17:18 1017 30.03 846 24.98 11.7 53.1 28 -6.1 21 12.1 0.476
17:19 1017 30.03 846 24.98 11.8 53.2 26 -7.2 19 12.15 0.478
17:20 1017 30.03 846 24.98 11.8 53.2 24 -8.1 17.5 12.23 0.481
17:21 1017 30.03 846 24.98 11.8 53.2 27 -6.8 19.8 12.2 0.48
17:22 1017 30.03 846 24.98 11.7 53.1 26 -7.2 19.1 12.1 0.476
17:23 1017 30.03 846 24.98 11.7 53 25 -7.9 17.8 12.02 0.473
17:24 1017 30.03 846 24.98 11.6 52.9 26 -7.4 18.7 12 0.472
17:25 1017 30.03 846 24.98 11.6 52.8 26 -7.1 19.2 12 0.472
17:26 1017 30.03 846 24.98 11.6 52.8 26 -7.2 19.1 11.95 0.47
17:27 1017 30.03 846 24.98 11.6 52.8 26 -7.1 19.1 11.93 0.47
17:28 1017 30.03 846 24.98 11.6 52.8 29 -5.8 21.6 11.99 0.472
17:29 1017 30.03 846 24.98 11.6 52.8 27 -6.6 20.2 11.98 0.472
17:30 1017 30.03 846 24.98 11.7 53 26 -7 19.4 12.05 0.474
17:31 1017 30.03 846 24.98 11.7 53.1 25 -7.5 18.5 12.15 0.478
17:32 1017 30.03 846 24.98 11.7 53 28 -6.2 20.9 12.08 0.476
17:33 1017 30.03 846 24.98 11.6 52.8 27 -6.7 20 12.02 0.473
17:34 1017 30.03 846 24.98 11.6 52.8 26 -7 19.3 11.98 0.472
17:35 1017 30.03 846 24.98 11.6 52.8 23 -8.9 16 11.93 0.47
17:36 1017 30.03 846 24.98 11.5 52.7 25 -7.6 18.2 11.96 0.471
17:37 1017 30.03 846 24.98 11.5 52.7 25 -7.9 17.8 11.88 0.468
17:38 1017 30.03 846 24.98 11.5 52.7 27 -6.7 19.9 11.88 0.468
17:39 1017 30.03 846 24.98 11.5 52.6 25 -8 17.6 11.86 0.467
17:40 1017 30.03 846 24.98 11.4 52.6 29 -5.8 21.6 11.88 0.468
17:41 1017 30.03 846 24.98 11.3 52.3 28 -6.5 20.3 11.7 0.461
17:42 1017 30.03 846 24.98 11.2 52.2 28 -6.5 20.3 11.67 0.459
17:43 1017 30.03 846 24.98 11.2 52.2 27 -6.9 19.5 11.62 0.457
17:44 1016 30 846 24.98 11.3 52.3 27 -7.2 19.1 11.7 0.461
17:45 1016 30 846 24.98 11.4 52.4 26 -7.3 18.8 11.75 0.463
17:46 1017 30.03 846 24.98 11.3 52.4 28 -6.4 20.5 11.71 0.461
17:47 1017 30.03 846 24.98 11.2 52.1 30 -5.9 21.4 11.58 0.456
17:48 1016 30 846 24.98 11 51.8 28 -6.7 19.9 11.41 0.449
17:49 1016 30 846 24.98 11 51.7 30 -6 21.2 11.36 0.447
17:50 1017 30.03 846 24.98 11 51.8 29 -6.4 20.5 11.39 0.448
17:51 1016 30 846 24.98 11 51.8 27 -7.4 18.6 11.41 0.449
17:52 1016 30 846 24.98 11.1 52 27 -7.2 19 11.54 0.454
17:53 1016 30 846 24.98 11.1 52 30 -6 21.3 11.54 0.454
17:54 1016 30 846 24.98 11.1 51.9 29 -6.3 20.7 11.49 0.452
17:55 1016 30 846 24.98 11 51.7 30 -5.9 21.3 11.36 0.447
17:56 1016 30 846 24.98 10.9 51.5 30 -6 21.3 11.26 0.443
17:57 1016 30 846 24.98 10.8 51.4 28 -6.9 19.5 11.19 0.441
17:58 1016 30 846 24.98 10.8 51.5 30 -6 21.2 11.2 0.441
17:59 1016 30 846 24.98 10.7 51.2 31 -5.6 21.9 11.09 0.437
18:00 1016 30 846 24.98 10.5 50.9 32 -5.3 22.4 10.92 0.43
18:01 1016 30 846 24.98 10.5 50.8 30 -6.5 20.2 10.84 0.427
18:02 1016 30 846 24.98 10.4 50.8 27 -7.7 18.2 10.84 0.427
18:03 1016 30 845 24.95 10.6 51.1 29 -6.5 20.2 11 0.433
18:04 1016 30 845 24.95 10.6 51.2 29 -6.6 20.1 11.07 0.436
18:05 1016 30 845 24.95 10.6 51.1 28 -6.9 19.5 10.99 0.433
18:06 1016 30 846 24.98 10.6 51.2 32 -5.4 22.2 11.02 0.434
18:07 1016 30 846 24.98 10.6 51 29 -6.8 19.7 10.94 0.431
18:08 1016 30 846 24.98 10.6 51 31 -5.8 21.6 10.94 0.431
18:09 1016 30 846 24.98 10.5 50.9 31 -5.8 21.5 10.89 0.429
18:10 1016 30 846 24.98 10.5 50.8 29 -6.9 19.6 10.84 0.427
18:11 1016 30 846 24.98 10.5 51 31 -5.7 21.7 10.94 0.431
18:12 1016 30 846 24.98 10.6 51 28 -7.2 19.1 10.96 0.431
18:13 1016 30 846 24.98 10.6 51 32 -5.4 22.2 11.01 0.433
18:14 1016 30 846 24.98 10.4 50.8 30 -6.4 20.5 10.88 0.428
18:15 1016 30 846 24.98 10.4 50.7 32 -5.8 21.6 10.82 0.426
18:16 1017 30.03 846 24.98 10.3 50.6 32 -5.6 21.9 10.71 0.422
18:17 1017 30.03 846 24.98 10.2 50.4 33 -5.5 22.2 10.63 0.419
18:18 1017 30.03 846 24.98 10.2 50.4 30 -6.5 20.4 10.61 0.418
18:19 1017 30.03 846 24.98 10.2 50.4 32 -5.8 21.5 10.64 0.419
18:20 1017 30.03 846 24.98 10.3 50.5 34 -5 23 10.68 0.42
18:21 1017 30.03 846 24.98 10.2 50.3 33 -5.3 22.4 10.55 0.415
18:22 1017 30.03 846 24.98 10.1 50.2 33 -5.5 22.1 10.54 0.415
18:23 1017 30.03 846 24.98 10.1 50.3 31 -6 21.2 10.54 0.415
18:24 1017 30.03 846 24.98 10.3 50.5 33 -5.4 22.3 10.71 0.422
18:25 1017 30.03 846 24.98 10.5 50.8 29 -6.9 19.6 10.84 0.427
18:26 1017 30.03 846 24.98 10.6 51.1 31 -5.7 21.7 11.02 0.434
18:27 1017 30.03 846 24.98 10.7 51.2 29 -6.6 20.2 11.09 0.437
18:28 1017 30.03 846 24.98 10.8 51.4 30 -6.2 20.9 11.18 0.44
18:29 1017 30.03 846 24.98 10.7 51.3 28 -7.1 19.3 11.13 0.438
18:30 1017 30.03 846 24.98 10.6 51.1 31 -6 21.2 11.04 0.435
18:31 1017 30.03 846 24.98 10.5 51 29 -6.6 20.2 10.96 0.431
18:32 1016 30 846 24.98 10.6 51 30 -6.1 21 10.96 0.431
18:33 1016 30 846 24.98 10.6 51 31 -6 21.1 10.92 0.43
18:34 1016 30 846 24.98 10.5 50.9 32 -5.3 22.5 10.95 0.431
18:35 1016 30 846 24.98 10.5 51 29 -6.8 19.8 10.97 0.432
18:36 1016 30 846 24.98 10.5 51 32 -5.6 21.9 10.95 0.431
18:37 1016 30 846 24.98 10.6 51 27 -7.5 18.5 11.01 0.433
18:38 1016 30 846 24.98 10.7 51.2 30 -6 21.1 11.06 0.435
18:39 1016 30 846 24.98 10.6 51.2 29 -6.8 19.7 11 0.433
18:40 1016 30 846 24.98 10.7 51.2 29 -6.5 20.3 11.05 0.435
18:41 1016 30 846 24.98 10.6 51.2 30 -6.1 21 11.03 0.434
18:42 1016 30 846 24.98 10.6 51 27 -7.6 18.4 10.97 0.432
18:43 1016 30 846 24.98 10.6 51.1 30 -6.1 21.1 11.02 0.434
18:44 1016 30 846 24.98 10.5 50.9 30 -6.4 20.5 10.88 0.428
18:45 1016 30 846 24.98 10.4 50.8 31 -5.9 21.5 10.79 0.425
18:46 1016 30 846 24.98 10.3 50.6 29 -6.8 19.8 10.72 0.422
18:47 1016 30 846 24.98 10.4 50.6 29 -6.9 19.6 10.74 0.423
18:48 1016 30 846 24.98 10.4 50.6 32 -5.4 22.3 10.74 0.423
18:49 1016 30 846 24.98 10.2 50.4 30 -6.4 20.5 10.58 0.417
18:50 1016 30 846 24.98 10.2 50.4 30 -6.5 20.3 10.61 0.418
18:51 1016 30 846 24.98 10.3 50.5 31 -6.1 21 10.64 0.419
18:52 1016 30 846 24.98 10.3 50.5 30 -6.4 20.5 10.71 0.422
18:53 1016 30 846 24.98 10.3 50.5 30 -6.5 20.4 10.69 0.421
18:54 1016 30 846 24.98 10.4 50.7 31 -6 21.2 10.77 0.424
18:55 1016 30 846 24.98 10.4 50.7 30 -6.2 20.8 10.79 0.425
18:56 1016 30 846 24.98 10.4 50.6 31 -5.9 21.4 10.78 0.424
18:57 1016 30 846 24.98 10.3 50.5 33 -5.2 22.6 10.69 0.421
18:58 1016 30 846 24.98 10.1 50.2 33 -5.4 22.3 10.52 0.414
18:59 1016 30 846 24.98 10 49.9 32 -5.8 21.6 10.4 0.409
19:00 1016 30 846 24.98 10 49.9 33 -5.5 22.2 10.33 0.407
19:01 1016 30 846 24.98 9.9 49.8 32 -6.1 21 10.28 0.405
19:02 1016 30 846 24.98 9.8 49.6 35 -5 23 10.21 0.402
19:03 1016 30 846 24.98 9.6 49.3 35 -5 23 10.06 0.396
19:04 1017 30.03 846 24.98 9.6 49.2 33 -5.7 21.7 9.99 0.393
19:05 1017 30.03 846 24.98 9.5 49.1 36 -4.8 23.4 9.91 0.39
19:06 1017 30.03 846 24.98 9.4 48.9 35 -5.4 22.3 9.83 0.387
19:07 1016 30 846 24.98 9.5 49 29 -7.8 17.9 9.83 0.387
19:08 1017 30.03 846 24.98 9.8 49.7 32 -6 21.2 10.18 0.401
19:09 1017 30.03 846 24.98 9.8 49.6 33 -5.9 21.4 10.2 0.402
19:10 1017 30.03 846 24.98 9.6 49.3 33 -5.8 21.6 10.04 0.395
19:11 1017 30.03 846 24.98 9.5 49 35 -5.3 22.5 9.89 0.389
19:12 1017 30.03 846 24.98 9.3 48.8 37 -4.5 24 9.74 0.383
19:13 1017 30.03 846 24.98 9.1 48.4 38 -4.6 23.7 9.54 0.376
19:14 1017 30.03 846 24.98 8.9 48 40 -3.9 25 9.34 0.368
19:15 1017 30.03 846 24.98 8.7 47.7 38 -4.9 23.2 9.15 0.36
19:16 1017 30.03 846 24.98 8.7 47.7 37 -5 23 9.09 0.358
19:17 1017 30.03 846 24.98 8.7 47.6 37 -5 23 9.12 0.359
19:18 1017 30.03 846 24.98 8.6 47.5 39 -4.5 23.9 9.09 0.358
19:19 1017 30.03 846 24.98 8.5 47.4 39 -4.5 24 8.93 0.352
19:20 1017 30.03 846 24.98 8.4 47.1 39 -4.7 23.5 8.81 0.347
19:21 1017 30.03 846 24.98 8.2 46.7 41 -4.2 24.5 8.64 0.34
19:22 1017 30.03 846 24.98 8.1 46.7 37 -5.7 21.8 8.54 0.336
19:23 1017 30.03 846 24.98 8.3 46.9 39 -4.9 23.1 8.66 0.341
19:24 1017 30.03 846 24.98 8.2 46.8 40 -4.7 23.6 8.67 0.341
19:25 1017 30.03 846 24.98 8 46.4 40 -4.6 23.7 8.46 0.333
19:26 1017 30.03 846 24.98 7.8 46 43 -3.9 25 8.21 0.323
19:27 1017 30.03 846 24.98 7.4 45.4 44 -3.9 25 7.94 0.313
19:28 1017 30.03 846 24.98 7.2 45 44 -4.4 24.1 7.68 0.302
19:29 1017 30.03 846 24.98 7.1 44.9 43 -4.6 23.7 7.56 0.298
19:30 1017 30.03 846 24.98 7.1 44.8 42 -4.8 23.3 7.51 0.296
19:31 1017 30.03 846 24.98 7.1 44.7 44 -4.2 24.4 7.48 0.294
19:32 1017 30.03 846 24.98 6.9 44.5 43 -4.7 23.6 7.37 0.29
19:33 1017 30.03 846 24.98 6.9 44.5 43 -4.8 23.3 7.31 0.288
19:34 1017 30.03 846 24.98 6.9 44.5 44 -4.6 23.8 7.29 0.287
19:35 1017 30.03 846 24.98 6.9 44.4 43 -4.9 23.1 7.24 0.285
19:36 1017 30.03 846 24.98 6.9 44.4 42 -5.2 22.7 7.25 0.285
19:37 1017 30.03 846 24.98 6.9 44.4 44 -4.6 23.7 7.28 0.287
19:38 1017 30.03 846 24.98 6.8 44.2 44 -4.7 23.6 7.16 0.282
19:39 1017 30.03 846 24.98 6.7 44.1 43 -5 23 7.15 0.281
19:40 1017 30.03 846 24.98 6.7 44.1 44 -4.7 23.5 7.12 0.28
19:41 1017 30.03 846 24.98 6.7 44 44 -4.6 23.6 7.04 0.277
19:42 1017 30.03 846 24.98 6.6 43.9 45 -4.3 24.2 6.97 0.274
19:43 1017 30.03 846 24.98 6.5 43.6 44 -4.8 23.4 6.84 0.269
19:44 1017 30.03 846 24.98 6.5 43.6 44 -4.9 23.2 6.896 0.271
19:45 1017 30.03 846 24.98 6.6 43.9 44 -4.9 23.2 6.953 0.274
19:46 1017 30.03 846 24.98 6.7 44 44 -4.7 23.5 7.06 0.278
19:47 1017 30.03 846 24.98 6.8 44.2 43 -5 23 7.13 0.281
19:48 1017 30.03 846 24.98 6.8 44.3 42 -5.3 22.4 7.21 0.284
19:49 1017 30.03 846 24.98 7 44.6 42 -5.1 22.9 7.32 0.288
19:50 1016 30 846 24.98 7 44.5 42 -5.1 22.8 7.38 0.291
19:51 1017 30.03 846 24.98 6.9 44.5 43 -4.9 23.2 7.34 0.289
19:52 1017 30.03 846 24.98 6.9 44.4 43 -4.7 23.6 7.32 0.288
19:53 1017 30.03 846 24.98 6.8 44.3 45 -4.4 24.1 7.23 0.285
19:54 1017 30.03 846 24.98 6.7 44 44 -4.6 23.8 7.09 0.279
19:55 1016 30 846 24.98 6.6 43.8 45 -4.4 24 6.975 0.275
19:56 1017 30.03 846 24.98 6.5 43.6 45 -4.5 23.8 6.891 0.271
19:57 1017 30.03 846 24.98 6.4 43.5 45 -4.6 23.6 6.806 0.268
19:58 1017 30.03 846 24.98 6.4 43.5 45 -4.7 23.5 6.777 0.267
19:59 1016 30 846 24.98 6.4 43.6 43 -5.2 22.7 6.811 0.268
20:00 1017 30.03 846 24.98 6.5 43.8 43 -5.2 22.6 6.936 0.273
20:01 1016 30 846 24.98 6.6 43.9 43 -5.1 22.9 7.04 0.277
20:02 1016 30 846 24.98 6.7 44.1 43 -4.9 23.2 7.1 0.28
20:03 1016 30 846 24.98 6.7 44.1 43 -5 23 7.13 0.281
20:04 1016 30 846 24.98 6.7 44.1 42 -5.2 22.6 7.11 0.28
20:05 1016 30 846 24.98 6.7 44.1 42 -5.1 22.7 7.14 0.281
20:06 1016 30 846 24.98 6.7 44.1 43 -4.9 23.2 7.09 0.279
20:07 1017 30.03 846 24.98 6.7 44 43 -5.1 22.9 7.08 0.279
20:08 1017 30.03 846 24.98 6.6 44 41 -5.5 22 7.04 0.277
20:09 1016 30 846 24.98 6.8 44.2 41 -5.6 22 7.15 0.281
20:10 1016 30 846 24.98 6.8 44.3 40 -5.7 21.8 7.23 0.285
20:11 1016 30 846 24.98 7 44.6 36 -6.9 19.6 7.36 0.29
20:12 1016 30 846 24.98 7.2 44.9 40 -5.5 22.1 7.56 0.298
20:13 1016 30 846 24.98 7.1 44.8 41 -5.3 22.5 7.47 0.294
20:14 1017 30.03 846 24.98 6.9 44.3 43 -4.9 23.1 7.27 0.286
20:15 1017 30.03 846 24.98 6.7 44 41 -5.6 21.9 7.07 0.278
20:16 1017 30.03 846 24.98 6.7 44 42 -5.4 22.3 7.05 0.278
20:17 1017 30.03 846 24.98 6.7 44 41 -5.7 21.7 7.06 0.278
20:18 1017 30.03 846 24.98 6.7 44.1 41 -5.7 21.7 7.07 0.278
20:19 1017 30.03 846 24.98 6.7 44 42 -5.4 22.2 7.11 0.28
20:20 1017 30.03 846 24.98 6.7 44 42 -5.5 22.2 7.06 0.278
20:21 1017 30.03 846 24.98 6.6 43.9 40 -6 21.1 7.04 0.277
20:22 1017 30.03 846 24.98 6.8 44.2 37 -6.8 19.7 7.11 0.28
20:23 1017 30.03 846 24.98 7 44.5 39 -6.1 21 7.38 0.291
20:24 1017 30.03 846 24.98 7.1 44.7 38 -6.2 20.9 7.42 0.292
20:25 1016 30 846 24.98 7.1 44.8 38 -6.1 21 7.45 0.293
20:26 1016 30 846 24.98 7.1 44.7 37 -6.6 20.1 7.4 0.291
20:27 1016 30 846 24.98 7.2 44.9 38 -6.1 21.1 7.52 0.296
20:28 1016 30 846 24.98 7.2 44.9 36 -6.9 19.5 7.58 0.298
20:29 1017 30.03 846 24.98 7.4 45.4 38 -6 21.2 7.79 0.307
20:30 1017 30.03 846 24.98 7.4 45.4 38 -5.8 21.5 7.8 0.307
20:31 1017 30.03 846 24.98 7.3 45.2 39 -5.8 21.5 7.74 0.305
20:32 1017 30.03 846 24.98 7.2 45 39 -5.7 21.7 7.62 0.3
20:33 1017 30.03 846 24.98 7.1 44.7 40 -5.7 21.8 7.48 0.294
20:34 1017 30.03 846 24.98 7 44.5 40 -5.6 21.9 7.35 0.289
20:35 1017 30.03 846 24.98 6.8 44.3 41 -5.6 21.9 7.23 0.285
20:36 1017 30.03 846 24.98 6.7 44 41 -5.5 22.1 7.1 0.28
20:37 1017 30.03 846 24.98 6.6 43.9 42 -5.5 22 6.985 0.275
20:38 1017 30.03 846 24.98 6.4 43.6 43 -5.4 22.3 6.877 0.271
20:39 1017 30.03 846 24.98 6.3 43.4 43 -5.3 22.5 6.753 0.266
20:40 1017 30.03 846 24.98 6.2 43.2 45 -4.9 23.3 6.629 0.261
20:41 1017 30.03 846 24.98 6 42.7 45 -5 23 6.431 0.253
20:42 1017 30.03 846 24.98 5.8 42.4 46 -5 23.1 6.193 0.244
20:43 1017 30.03 846 24.98 5.7 42.3 44 -5.6 21.9 6.165 0.243
20:44 1017 30.03 846 24.98 6 42.7 43 -5.8 21.6 6.34 0.25
20:45 1017 30.03 846 24.98 6.2 43.2 42 -5.8 21.6 6.589 0.259
20:46 1017 30.03 846 24.98 6.3 43.4 43 -5.5 22.2 6.736 0.265
20:47 1017 30.03 846 24.98 6.3 43.4 42 -5.8 21.6 6.691 0.263
20:48 1017 30.03 846 24.98 6.4 43.5 41 -5.9 21.3 6.725 0.265
20:49 1017 30.03 846 24.98 6.5 43.6 42 -5.6 21.8 6.827 0.269
20:50 1017 30.03 846 24.98 6.4 43.5 42 -5.6 21.9 6.81 0.268
20:51 1017 30.03 846 24.98 6.3 43.3 44 -5 23.1 6.691 0.263
20:52 1017 30.03 846 24.98 5.9 42.7 47 -4.5 23.8 6.442 0.254
20:53 1017 30.03 846 24.98 5.7 42.3 47 -4.8 23.3 6.126 0.241
20:54 1016 30 846 24.98 5.5 41.9 46 -5 22.9 5.922 0.233
20:55 1016 30 846 24.98 5.5 41.9 46 -5.3 22.4 5.877 0.231
20:56 1017 30.03 846 24.98 5.6 42 46 -5.3 22.5 5.939 0.234
20:57 1017 30.03 846 24.98 5.7 42.2 44 -5.5 22.1 6.047 0.238
20:58 1016 30 846 24.98 5.9 42.6 43 -5.6 21.9 6.25 0.246
20:59 1016 30 846 24.98 6.1 42.9 42 -5.8 21.5 6.431 0.253
21:00 1016 30 846 24.98 6.2 43.2 42 -5.7 21.7 6.618 0.261
21:01 1016 30 846 24.98 6.3 43.3 43 -5.3 22.5 6.669 0.263
21:02 1016 30 846 24.98 6.1 43.1 44 -5.3 22.5 6.533 0.257
21:03 1016 30 846 24.98 6.1 43 44 -5.3 22.4 6.482 0.255
21:04 1016 30 846 24.98 6.1 43 44 -5.2 22.7 6.505 0.256
21:05 1016 30 846 24.98 6.1 42.9 43 -5.5 22.2 6.46 0.254
21:06 1016 30 846 24.98 6.1 43 44 -5.3 22.4 6.516 0.257
21:07 1016 30 846 24.98 6.1 43 43 -5.5 22.1 6.482 0.255
21:08 1016 30 846 24.98 6.1 43 44 -5.4 22.4 6.527 0.257
21:09 1016 30 846 24.98 6.2 43.1 43 -5.4 22.3 6.557 0.258
21:10 1016 30 846 24.98 6.2 43.1 43 -5.4 22.3 6.523 0.257
21:11 1016 30 845 24.95 6.2 43.1 43 -5.5 22.1 6.529 0.257
21:12 1016 30 845 24.95 6.1 43 44 -5.3 22.5 6.479 0.255
21:13 1016 30 845 24.95 6.1 42.9 43 -5.4 22.2 6.474 0.255
21:14 1016 30 845 24.95 6.1 43.1 42 -5.8 21.6 6.547 0.258
21:15 1016 30 845 24.95 6.3 43.3 41 -5.9 21.5 6.65 0.262
21:16 1016 30 845 24.95 6.4 43.6 40 -6.1 20.9 6.758 0.266
21:17 1016 30 845 24.95 6.6 43.9 39 -6.3 20.7 6.939 0.273
21:18 1016 30 845 24.95 6.7 44.1 40 -6 21.2 7.09 0.279
21:19 1016 30 845 24.95 6.7 44.1 40 -5.9 21.3 7.08 0.279
21:20 1016 30 845 24.95 6.6 43.9 40 -5.9 21.3 6.974 0.275
21:21 1016 30 845 24.95 6.6 43.9 42 -5.5 22.1 6.974 0.275
21:22 1016 30 845 24.95 6.5 43.7 43 -5.2 22.7 6.878 0.271
21:23 1016 30 845 24.95 6.2 43.1 44 -5.2 22.6 6.623 0.261
21:24 1016 30 845 24.95 5.9 42.7 44 -5.3 22.5 6.335 0.249
21:25 1016 30 845 24.95 5.9 42.7 43 -5.6 21.8 6.29 0.248
21:26 1016 30 845 24.95 5.9 42.6 46 -4.9 23.1 6.296 0.248
21:27 1016 30 845 24.95 5.6 42.1 47 -4.7 23.6 6.07 0.239
21:28 1016 30 845 24.95 5.3 41.6 48 -4.9 23.2 5.798 0.228
21:29 1016 30 845 24.95 5.3 41.5 47 -5.2 22.7 5.686 0.224
21:30 1016 30 845 24.95 5.3 41.6 46 -5.4 22.4 5.699 0.224
21:31 1016 30 845 24.95 5.5 41.8 47 -4.9 23.1 5.812 0.229
21:32 1016 30 845 24.95 5.3 41.6 49 -4.4 24 5.761 0.227
21:33 1016 30 845 24.95 5.1 41.1 50 -4.5 23.9 5.559 0.219
21:34 1016 30 845 24.95 4.9 40.8 51 -4.5 23.9 5.361 0.211
21:35 1016 30 846 24.98 4.8 40.7 50 -4.6 23.6 5.209 0.205
21:36 1016 30 846 24.98 4.9 40.8 50 -4.8 23.4 5.26 0.207
21:37 1016 30 846 24.98 4.9 40.9 50 -4.6 23.8 5.334 0.21
21:38 1016 30 846 24.98 4.9 40.8 50 -4.6 23.8 5.283 0.208
21:39 1016 30 846 24.98 4.9 40.7 50 -4.7 23.5 5.272 0.208
21:40 1016 30 846 24.98 4.9 40.9 49 -5 23 5.329 0.21
21:41 1016 30 846 24.98 5.1 41.2 47 -5.3 22.5 5.476 0.216
21:42 1016 30 846 24.98 5.3 41.6 48 -4.8 23.3 5.709 0.225
21:43 1016 30 846 24.98 5.3 41.6 48 -4.7 23.5 5.709 0.225
21:44 1016 30 846 24.98 5.3 41.5 49 -4.7 23.6 5.641 0.222
21:45 1016 30 846 24.98 5.2 41.4 49 -4.6 23.7 5.624 0.221
21:46 1016 30 846 24.98 5.1 41.3 50 -4.4 24.1 5.528 0.218
21:47 1016 30 846 24.98 5 41 51 -4.4 24.1 5.41 0.213
21:48 1016 30 846 24.98 4.9 40.8 52 -4.3 24.3 5.285 0.208
21:49 1016 30 846 24.98 4.7 40.5 52 -4.3 24.3 5.116 0.201
21:50 1016 30 846 24.98 4.6 40.3 51 -4.8 23.4 4.975 0.196
21:51 1016 30 846 24.98 4.6 40.3 51 -4.7 23.6 4.986 0.196
21:52 1016 30 846 24.98 4.7 40.4 53 -4.2 24.5 5.037 0.198
21:53 1016 30 846 24.98 4.5 40.1 53 -4.2 24.4 4.913 0.193
21:54 1016 30 846 24.98 4.3 39.8 54 -4.1 24.6 4.777 0.188
21:55 1016 30 846 24.98 4.2 39.6 54 -4.2 24.4 4.653 0.183
21:56 1016 30 846 24.98 4.3 39.7 52 -4.7 23.6 4.624 0.182
21:57 1016 30 846 24.98 4.4 40 52 -4.6 23.7 4.789 0.189
21:58 1016 30 846 24.98 4.6 40.2 50 -5 22.9 4.947 0.195
21:59 1016 30 845 24.95 4.9 40.8 47 -5.4 22.4 5.236 0.206
22:00 1016 30 845 24.95 5.1 41.2 48 -5.1 22.9 5.496 0.216
22:01 1016 30 845 24.95 5.3 41.5 46 -5.4 22.3 5.626 0.221
22:02 1016 30 845 24.95 5.5 41.8 46 -5.2 22.6 5.79 0.228
22:03 1016 30 845 24.95 5.5 42 46 -5.3 22.5 5.898 0.232
22:04 1016 30 845 24.95 5.6 42.1 46 -5.1 22.8 5.932 0.234
22:05 1016 30 845 24.95 5.6 42.1 43 -6.1 21 5.994 0.236
22:06 1016 30 845 24.95 6 42.8 41 -6.3 20.7 6.277 0.247
22:07 1016 30 845 24.95 6.2 43.2 41 -5.9 21.3 6.605 0.26
22:08 1016 30 845 24.95 6.4 43.5 41 -5.8 21.6 6.679 0.263
22:09 1016 30 845 24.95 6.4 43.4 42 -5.6 21.9 6.707 0.264
22:10 1016 30 845 24.95 6.1 43 45 -5.1 22.9 6.469 0.255
22:11 1016 30 845 24.95 5.7 42.2 46 -5 23 6.068 0.239
22:12 1016 30 845 24.95 5.4 41.7 47 -5 23 5.791 0.228
22:13 1016 30 845 24.95 5.3 41.5 44 -5.9 21.5 5.689 0.224
22:14 1016 30 845 24.95 5.4 41.7 44 -5.9 21.4 5.745 0.226
22:15 1016 30 845 24.95 5.4 41.7 43 -6.3 20.7 5.711 0.225
22:16 1016 30 845 24.95 5.8 42.4 41 -6.5 20.2 6.017 0.237
22:17 1016 30 845 24.95 6.1 43 39 -6.7 20 6.351 0.25
22:18 1016 30 845 24.95 6.5 43.8 38 -6.7 19.9 6.758 0.266
22:19 1016 30 845 24.95 6.9 44.4 38 -6.6 20.1 7.17 0.282
22:20 1016 30 845 24.95 7 44.6 38 -6.3 20.6 7.28 0.287
22:21 1016 30 845 24.95 6.9 44.5 38 -6.5 20.3 7.22 0.284
22:22 1016 30 845 24.95 7.1 44.7 37 -6.7 20 7.35 0.289
22:23 1016 30 845 24.95 7 44.6 42 -5.1 22.7 7.36 0.29
22:24 1016 30 845 24.95 6.3 43.4 45 -4.9 23.2 6.815 0.268
22:25 1016 30 845 24.95 5.8 42.5 46 -4.9 23.1 6.294 0.248
22:26 1016 30 845 24.95 5.5 42 47 -5 23.1 5.949 0.234
22:27 1016 30 845 24.95 5.4 41.7 46 -5.4 22.3 5.802 0.228
22:28 1016 30 845 24.95 5.5 41.8 44 -5.8 21.5 5.802 0.228
22:29 1016 30 845 24.95 5.6 42.1 44 -5.6 21.9 5.927 0.233
22:30 1016 30 845 24.95 5.5 41.9 44 -5.9 21.4 5.847 0.23
22:31 1016 30 845 24.95 5.6 42 45 -5.5 22.1 5.927 0.233
22:32 1016 30 845 24.95 5.7 42.2 44 -5.6 21.9 6.011 0.237
22:33 1016 30 845 24.95 5.9 42.6 44 -5.5 22.1 6.277 0.247
22:34 1016 30 845 24.95 5.9 42.7 44 -5.3 22.4 6.323 0.249
22:35 1016 30 845 24.95 5.8 42.5 45 -5.2 22.6 6.232 0.245
22:36 1016 30 845 24.95 5.8 42.4 43 -5.7 21.7 6.187 0.244
22:37 1016 30 845 24.95 6 42.7 44 -5.5 22.2 6.362 0.25
22:38 1016 30 845 24.95 5.9 42.6 45 -5.2 22.6 6.345 0.25
22:39 1016 30 845 24.95 5.8 42.4 46 -5 23.1 6.159 0.242
22:40 1016 30 845 24.95 5.7 42.3 44 -5.6 21.9 6.13 0.241
22:41 1016 30 845 24.95 5.8 42.4 44 -5.5 22.1 6.176 0.243
22:42 1016 30 845 24.95 6 42.8 43 -5.6 21.9 6.334 0.249
22:43 1016 30 845 24.95 6.2 43.2 43 -5.5 22.1 6.577 0.259
22:44 1016 30 845 24.95 6.3 43.4 42 -5.6 21.9 6.679 0.263
22:45 1016 30 845 24.95 6.3 43.4 44 -4.9 23.1 6.696 0.264
22:46 1016 30 845 24.95 6.2 43.2 45 -4.7 23.5 6.617 0.261
22:47 1016 30 845 24.95 6.1 42.9 45 -5.1 22.8 6.498 0.256
22:48 1016 30 845 24.95 6.2 43.2 43 -5.3 22.4 6.6 0.26
22:49 1016 30 845 24.95 6.3 43.3 44 -5.1 22.8 6.673 0.263
22:50 1016 30 845 24.95 6.2 43.2 45 -4.9 23.2 6.639 0.261
22:51 1016 30 845 24.95 6.1 43.1 44 -5.2 22.6 6.521 0.257
22:52 1016 30 845 24.95 6.1 43 45 -5 23 6.492 0.256
22:53 1016 30 845 24.95 6.2 43.1 43 -5.4 22.2 6.555 0.258
22:54 1016 30 845 24.95 6.3 43.4 43 -5.2 22.7 6.719 0.265
22:55 1016 30 845 24.95 6.3 43.4 44 -4.9 23.2 6.73 0.265
22:56 1016 30 845 24.95 6.2 43.2 46 -4.6 23.8 6.679 0.263
22:57 1016 30 845 24.95 6.1 43 46 -4.7 23.6 6.521 0.257
22:58 1016 30 845 24.95 5.9 42.7 46 -4.8 23.4 6.385 0.251
22:59 1016 30 845 24.95 5.9 42.6 45 -5.1 22.8 6.272 0.247
23:00 1016 30 845 24.95 5.9 42.7 45 -5 22.9 6.328 0.249
23:01 1016 30 845 24.95 6.1 42.9 45 -5.1 22.8 6.408 0.252
23:02 1016 30 845 24.95 6.2 43.2 43 -5.5 22.2 6.583 0.259
23:03 1016 30 845 24.95 6.4 43.5 44 -5.1 22.8 6.747 0.266
23:04 1016 30 845 24.95 6.4 43.5 44 -5 23 6.815 0.268
23:05 1016 30 845 24.95 6.4 43.5 44 -4.9 23.2 6.77 0.267
23:06 1016 30 845 24.95 6.3 43.3 44 -5 23 6.702 0.264
23:07 1016 30 845 24.95 6.2 43.2 45 -4.7 23.5 6.645 0.262
23:08 1016 30 845 24.95 6.3 43.3 44 -5.2 22.6 6.639 0.261
23:09 1016 30 845 24.95 6.4 43.6 44 -4.9 23.2 6.804 0.268
23:10 1016 30 845 24.95 6.4 43.6 46 -4.4 24.1 6.837 0.269
23:11 1016 30 845 24.95 6.4 43.4 46 -4.5 23.8 6.77 0.267
23:12 1015 29.97 845 24.95 6.3 43.4 46 -4.6 23.8 6.73 0.265
23:13 1015 29.97 845 24.95 6.3 43.3 46 -4.6 23.7 6.679 0.263
23:14 1016 30 845 24.95 6.2 43.2 46 -4.4 24 6.617 0.261
23:15 1015 29.97 845 24.95 6.3 43.3 42 -5.7 21.8 6.656 0.262
23:16 1015 29.97 845 24.95 6.7 44.1 41 -5.5 22 7.11 0.28
23:17 1015 29.97 845 24.95 7 44.6 41 -5.3 22.4 7.4 0.291
23:18 1016 30 845 24.95 7.1 44.8 40 -5.5 22 7.48 0.294
23:19 1016 30 845 24.95 7.1 44.7 41 -5.2 22.7 7.47 0.294
23:20 1016 30 845 24.95 7.1 44.7 41 -5.2 22.7 7.41 0.292
23:21 1016 30 845 24.95 6.9 44.4 44 -4.6 23.7 7.33 0.289
23:22 1016 30 845 24.95 6.7 44 43 -4.9 23.1 7.1 0.28
23:23 1016 30 845 24.95 6.6 43.9 43 -4.9 23.1 7 0.276
23:24 1015 29.97 845 24.95 6.6 43.9 44 -4.7 23.5 7.04 0.277
23:25 1016 30 845 24.95 6.6 43.9 43 -5 23 6.968 0.274
23:26 1015 29.97 845 24.95 6.6 43.8 45 -4.5 24 6.985 0.275
23:27 1016 30 845 24.95 6.5 43.7 46 -4.4 24.1 6.9 0.272
23:28 1016 30 845 24.95 6.5 43.6 44 -4.8 23.4 6.804 0.268
23:29 1016 30 845 24.95 6.4 43.6 44 -4.8 23.4 6.832 0.269
23:30 1016 30 845 24.95 6.5 43.7 43 -5 23 6.905 0.272
23:31 1015 29.97 845 24.95 6.6 43.9 44 -4.8 23.3 7.02 0.276
23:32 1015 29.97 845 24.95 6.7 44 44 -4.7 23.6 7.11 0.28
23:33 1016 30 845 24.95 6.7 44 44 -4.8 23.4 7.09 0.279
23:34 1015 29.97 845 24.95 6.6 43.9 45 -4.6 23.8 7.02 0.276
23:35 1016 30 845 24.95 6.6 44 43 -5.1 22.8 7.01 0.276
23:36 1016 30 845 24.95 6.8 44.2 43 -4.8 23.4 7.14 0.281
23:37 1015 29.97 845 24.95 6.8 44.3 43 -4.9 23.2 7.21 0.284
23:38 1016 30 845 24.95 6.9 44.4 43 -4.9 23.2 7.27 0.286
23:39 1015 29.97 845 24.95 6.8 44.3 45 -4.4 24.1 7.21 0.284
23:40 1015 29.97 845 24.95 6.6 43.9 45 -4.6 23.7 7.05 0.278
23:41 1015 29.97 845 24.95 6.6 43.8 43 -5 23 6.968 0.274
23:42 1015 29.97 844 24.92 6.6 43.9 43 -5.1 22.8 7.01 0.276
23:43 1015 29.97 844 24.92 6.7 44.1 42 -5.1 22.8 7.12 0.28
23:44 1015 29.97 844 24.92 6.8 44.2 43 -5 23 7.18 0.283
23:45 1015 29.97 844 24.92 6.7 44.1 45 -4.3 24.2 7.18 0.283
23:46 1015 29.97 844 24.92 6.5 43.8 46 -4.2 24.5 7.01 0.276
23:47 1015 29.97 844 24.92 6.4 43.5 46 -4.5 23.9 6.804 0.268
23:48 1015 29.97 844 24.92 6.3 43.4 46 -4.4 24 6.736 0.265
23:49 1015 29.97 845 24.95 6.3 43.3 46 -4.4 24 6.668 0.263
23:50 1015 29.97 844 24.92 6.3 43.3 46 -4.4 24 6.668 0.263
23:51 1015 29.97 844 24.92 6.2 43.2 46 -4.5 23.9 6.668 0.263
23:52 1015 29.97 844 24.92 6.2 43.2 46 -4.5 23.9 6.6 0.26
23:53 1015 29.97 844 24.92 6.2 43.1 46 -4.5 23.8 6.606 0.26
23:54 1015 29.97 844 24.92 6.2 43.1 45 -5 23 6.623 0.261
23:55 1015 29.97 844 24.92 6.3 43.3 45 -4.7 23.6 6.713 0.264
23:56 1015 29.97 844 24.92 6.4 43.5 44 -4.9 23.3 6.758 0.266
23:57 1015 29.97 844 24.92 6.5 43.7 43 -5.2 22.6 6.877 0.271
23:58 1015 29.97 844 24.92 6.7 44.1 44 -4.8 23.4 7.12 0.28
23:59 1015 29.97 844 24.92 6.9 44.4 42 -5.3 22.5 7.26 0.286
24:00 1015 29.97 844 24.92 7 44.6 41 -5.3 22.4 7.37 0.29